Wetterdaten: Montag, 02.03.2026
Datum Zeit Temp. Aussen Temp. o. S. Temp +5cm Feuchte Auss Luftdruck Regen Sonnenschein Solar Windböen Empfang
02.03.2026 00:00 7,8 °C 6,7 °C 3,3 °C 79 % 1022,4 hPa 0,0 l/m² 0 min 0 W/m² 12,9 km/h (3 Bft) 97,87 %
02.03.2026 00:02 7,8 °C 6,7 °C 3,3 °C 80 % 1022,5 hPa 0,0 l/m² 0 min 0 W/m² 6,4 km/h (2 Bft) 92,68 %
02.03.2026 00:04 7,8 °C 6,7 °C 3,3 °C 80 % 1022,5 hPa 0,0 l/m² 0 min 0 W/m² 6,4 km/h (2 Bft) 93,75 %
02.03.2026 00:07 7,7 °C 6,1 °C 2,8 °C 80 % 1022,5 hPa 0,0 l/m² 0 min 0 W/m² 3,2 km/h (1 Bft) 92,86 %
02.03.2026 00:08 7,7 °C 6,1 °C 2,8 °C 80 % 1022,5 hPa 0,0 l/m² 0 min 0 W/m² 0,0 km/h (0 Bft) 95,83 %
02.03.2026 00:10 7,7 °C 6,1 °C 2,8 °C 80 % 1022,5 hPa 0,0 l/m² 0 min 0 W/m² 0,0 km/h (0 Bft) 93,62 %
02.03.2026 00:12 7,7 °C 6,1 °C 2,8 °C 80 % 1022,5 hPa 0,0 l/m² 0 min 0 W/m² 0,0 km/h (0 Bft) 95,74 %
02.03.2026 00:14 7,6 °C 6,1 °C 2,8 °C 80 % 1022,5 hPa 0,0 l/m² 0 min 0 W/m² 0,0 km/h (0 Bft) 78,26 %
02.03.2026 00:16 7,6 °C 6,1 °C 2,8 °C 80 % 1022,4 hPa 0,0 l/m² 0 min 0 W/m² 0,0 km/h (0 Bft) 69,77 %
02.03.2026 00:18 7,6 °C 6,1 °C 2,8 °C 81 % 1022,5 hPa 0,0 l/m² 0 min 0 W/m² 6,4 km/h (2 Bft) 95,74 %
02.03.2026 00:20 7,5 °C 6,1 °C 2,8 °C 81 % 1022,4 hPa 0,0 l/m² 0 min 0 W/m² 6,4 km/h (2 Bft) 95,74 %
02.03.2026 00:22 7,4 °C 6,1 °C 2,8 °C 81 % 1022,4 hPa 0,0 l/m² 0 min 0 W/m² 6,4 km/h (2 Bft) 93,62 %
02.03.2026 00:24 7,4 °C 6,1 °C 2,8 °C 81 % 1022,5 hPa 0,0 l/m² 0 min 0 W/m² 12,9 km/h (3 Bft) 97,87 %
02.03.2026 00:26 7,4 °C 6,1 °C 2,8 °C 81 % 1022,4 hPa 0,0 l/m² 0 min 0 W/m² 6,4 km/h (2 Bft) 97,83 %
02.03.2026 00:28 7,3 °C 6,1 °C 2,8 °C 81 % 1022,5 hPa 0,0 l/m² 0 min 0 W/m² 9,7 km/h (2 Bft) 97,87 %
02.03.2026 00:30 7,3 °C 6,1 °C 2,8 °C 81 % 1022,4 hPa 0,0 l/m² 0 min 0 W/m² 12,9 km/h (3 Bft) 97,87 %
02.03.2026 00:32 7,3 °C 6,1 °C 2,8 °C 81 % 1022,4 hPa 0,0 l/m² 0 min 0 W/m² 16,1 km/h (3 Bft) 97,87 %
02.03.2026 00:34 7,2 °C 6,1 °C 2,8 °C 81 % 1022,4 hPa 0,0 l/m² 0 min 0 W/m² 6,4 km/h (2 Bft) 97,87 %
02.03.2026 00:36 7,2 °C 6,1 °C 2,8 °C 82 % 1022,5 hPa 0,0 l/m² 0 min 0 W/m² 6,4 km/h (2 Bft) 97,83 %
02.03.2026 00:38 7,2 °C 6,1 °C 2,8 °C 82 % 1022,4 hPa 0,0 l/m² 0 min 0 W/m² 6,4 km/h (2 Bft) 97,87 %
02.03.2026 00:40 7,1 °C 6,1 °C 2,8 °C 82 % 1022,5 hPa 0,0 l/m² 0 min 0 W/m² 9,7 km/h (2 Bft) 95,74 %
02.03.2026 00:42 7,1 °C 6,1 °C 2,8 °C 82 % 1022,4 hPa 0,0 l/m² 0 min 0 W/m² 6,4 km/h (2 Bft) 97,87 %
02.03.2026 00:44 7,1 °C 6,1 °C 2,8 °C 82 % 1022,4 hPa 0,0 l/m² 0 min 0 W/m² 12,9 km/h (3 Bft) 95,74 %
02.03.2026 00:46 7,1 °C 6,1 °C 2,8 °C 82 % 1022,5 hPa 0,0 l/m² 0 min 0 W/m² 12,9 km/h (3 Bft) 97,87 %
02.03.2026 00:48 7,0 °C 6,1 °C 2,8 °C 82 % 1022,4 hPa 0,0 l/m² 0 min 0 W/m² 6,4 km/h (2 Bft) 95,65 %
02.03.2026 00:50 7,0 °C 6,1 °C 2,8 °C 82 % 1022,4 hPa 0,0 l/m² 0 min 0 W/m² 12,9 km/h (3 Bft) 97,87 %
02.03.2026 00:52 7,0 °C 6,1 °C 2,8 °C 82 % 1022,5 hPa 0,0 l/m² 0 min 0 W/m² 6,4 km/h (2 Bft) 95,74 %
02.03.2026 00:54 6,9 °C 6,1 °C 2,8 °C 83 % 1022,5 hPa 0,0 l/m² 0 min 0 W/m² 6,4 km/h (2 Bft) 93,62 %
02.03.2026 00:56 6,9 °C 6,1 °C 2,8 °C 83 % 1022,5 hPa 0,0 l/m² 0 min 0 W/m² 6,4 km/h (2 Bft) 97,87 %
02.03.2026 00:58 6,9 °C 6,1 °C 2,8 °C 83 % 1022,5 hPa 0,0 l/m² 0 min 0 W/m² 12,9 km/h (3 Bft) 100,00 %
02.03.2026 01:00 6,9 °C 6,1 °C 2,8 °C 83 % 1022,4 hPa 0,0 l/m² 0 min 0 W/m² 9,7 km/h (2 Bft) 100,00 %
02.03.2026 01:02 6,9 °C 6,1 °C 2,8 °C 83 % 1022,5 hPa 0,0 l/m² 0 min 0 W/m² 6,4 km/h (2 Bft) 100,00 %
02.03.2026 01:04 6,9 °C 6,1 °C 2,8 °C 83 % 1022,5 hPa 0,0 l/m² 0 min 0 W/m² 6,4 km/h (2 Bft) 97,92 %
02.03.2026 01:06 6,9 °C 6,1 °C 2,8 °C 83 % 1022,5 hPa 0,0 l/m² 0 min 0 W/m² 3,2 km/h (1 Bft) 100,00 %
02.03.2026 01:08 6,8 °C 6,1 °C 2,8 °C 83 % 1022,5 hPa 0,0 l/m² 0 min 0 W/m² 6,4 km/h (2 Bft) 100,00 %
02.03.2026 01:10 6,8 °C 6,1 °C 2,2 °C 83 % 1022,4 hPa 0,0 l/m² 0 min 0 W/m² 6,4 km/h (2 Bft) 97,14 %
02.03.2026 01:12 6,8 °C 6,1 °C 2,2 °C 83 % 1022,5 hPa 0,0 l/m² 0 min 0 W/m² 12,9 km/h (3 Bft) 95,74 %
02.03.2026 01:14 6,8 °C 6,1 °C 2,2 °C 83 % 1022,5 hPa 0,0 l/m² 0 min 0 W/m² 6,4 km/h (2 Bft) 97,87 %
02.03.2026 01:16 6,8 °C 5,6 °C 2,2 °C 84 % 1022,4 hPa 0,0 l/m² 0 min 0 W/m² 6,4 km/h (2 Bft) 97,83 %
02.03.2026 01:18 6,8 °C 5,6 °C 2,2 °C 84 % 1022,4 hPa 0,0 l/m² 0 min 0 W/m² 6,4 km/h (2 Bft) 97,87 %
02.03.2026 01:20 6,8 °C 5,6 °C 2,2 °C 84 % 1022,4 hPa 0,0 l/m² 0 min 0 W/m² 6,4 km/h (2 Bft) 100,00 %
02.03.2026 01:22 6,8 °C 5,6 °C 2,2 °C 84 % 1022,4 hPa 0,0 l/m² 0 min 0 W/m² 16,1 km/h (3 Bft) 97,87 %
02.03.2026 01:24 6,8 °C 6,1 °C 2,2 °C 84 % 1022,4 hPa 0,0 l/m² 0 min 0 W/m² 12,9 km/h (3 Bft) 97,87 %
02.03.2026 01:26 6,7 °C 5,6 °C 2,2 °C 84 % 1022,3 hPa 0,0 l/m² 0 min 0 W/m² 3,2 km/h (1 Bft) 53,49 %
02.03.2026 01:28 6,7 °C 5,6 °C 2,2 °C 84 % 1022,4 hPa 0,0 l/m² 0 min 0 W/m² 6,4 km/h (2 Bft) 97,87 %
02.03.2026 01:30 6,7 °C 5,6 °C 2,2 °C 84 % 1022,4 hPa 0,0 l/m² 0 min 0 W/m² 12,9 km/h (3 Bft) 97,87 %
02.03.2026 01:32 6,7 °C 5,6 °C 2,2 °C 84 % 1022,3 hPa 0,0 l/m² 0 min 0 W/m² 9,7 km/h (2 Bft) 93,62 %
02.03.2026 01:34 6,7 °C 5,6 °C 2,2 °C 84 % 1022,4 hPa 0,0 l/m² 0 min 0 W/m² 6,4 km/h (2 Bft) 95,74 %
02.03.2026 01:36 6,7 °C 5,6 °C 2,2 °C 84 % 1022,4 hPa 0,0 l/m² 0 min 0 W/m² 6,4 km/h (2 Bft) 93,62 %
02.03.2026 01:38 6,7 °C 5,6 °C 2,2 °C 84 % 1022,4 hPa 0,0 l/m² 0 min 0 W/m² 6,4 km/h (2 Bft) 95,65 %
02.03.2026 01:40 6,6 °C 5,6 °C 2,2 °C 84 % 1022,4 hPa 0,0 l/m² 0 min 0 W/m² 6,4 km/h (2 Bft) 95,74 %
02.03.2026 01:42 6,6 °C 5,6 °C 2,2 °C 84 % 1022,4 hPa 0,0 l/m² 0 min 0 W/m² 6,4 km/h (2 Bft) 95,74 %
02.03.2026 01:44 6,6 °C 5,6 °C 2,2 °C 84 % 1022,4 hPa 0,0 l/m² 0 min 0 W/m² 12,9 km/h (3 Bft) 93,62 %
02.03.2026 01:46 6,6 °C 5,6 °C 2,2 °C 85 % 1022,3 hPa 0,0 l/m² 0 min 0 W/m² 12,9 km/h (3 Bft) 95,74 %
02.03.2026 01:48 6,6 °C 5,6 °C 2,2 °C 85 % 1022,4 hPa 0,0 l/m² 0 min 0 W/m² 12,9 km/h (3 Bft) 97,87 %
02.03.2026 01:50 6,6 °C 5,6 °C 2,2 °C 85 % 1022,4 hPa 0,0 l/m² 0 min 0 W/m² 12,9 km/h (3 Bft) 97,83 %
02.03.2026 01:52 6,5 °C 5,6 °C 2,2 °C 85 % 1022,4 hPa 0,0 l/m² 0 min 0 W/m² 12,9 km/h (3 Bft) 97,87 %
02.03.2026 01:54 6,5 °C 5,6 °C 2,2 °C 85 % 1022,4 hPa 0,0 l/m² 0 min 0 W/m² 6,4 km/h (2 Bft) 97,87 %
02.03.2026 01:56 6,5 °C 5,6 °C 2,2 °C 85 % 1022,4 hPa 0,0 l/m² 0 min 0 W/m² 6,4 km/h (2 Bft) 97,87 %
02.03.2026 01:58 6,5 °C 5,6 °C 2,2 °C 85 % 1022,4 hPa 0,0 l/m² 0 min 0 W/m² 12,9 km/h (3 Bft) 97,87 %
02.03.2026 02:00 6,5 °C 5,6 °C 2,2 °C 85 % 1022,4 hPa 0,0 l/m² 0 min 0 W/m² 6,4 km/h (2 Bft) 97,87 %
02.03.2026 02:02 6,5 °C 5,6 °C 2,2 °C 85 % 1022,4 hPa 0,0 l/m² 0 min 0 W/m² 6,4 km/h (2 Bft) 97,83 %
02.03.2026 02:04 6,5 °C 5,6 °C 2,2 °C 85 % 1022,4 hPa 0,0 l/m² 0 min 0 W/m² 12,9 km/h (3 Bft) 95,83 %
02.03.2026 02:06 6,5 °C 5,6 °C 2,2 °C 85 % 1022,4 hPa 0,0 l/m² 0 min 0 W/m² 12,9 km/h (3 Bft) 98,31 %
02.03.2026 02:08 6,4 °C 5,6 °C 2,2 °C 85 % 1022,4 hPa 0,0 l/m² 0 min 0 W/m² 6,4 km/h (2 Bft) 100,00 %
02.03.2026 02:10 6,4 °C 5,6 °C 2,2 °C 85 % 1022,4 hPa 0,0 l/m² 0 min 0 W/m² 6,4 km/h (2 Bft) 100,00 %
02.03.2026 02:12 6,4 °C 5,6 °C 2,2 °C 85 % 1022,4 hPa 0,0 l/m² 0 min 0 W/m² 6,4 km/h (2 Bft) 100,00 %
02.03.2026 02:14 6,4 °C 5,6 °C 2,2 °C 85 % 1022,4 hPa 0,0 l/m² 0 min 0 W/m² 12,9 km/h (3 Bft) 100,00 %
02.03.2026 02:16 6,4 °C 5,6 °C 2,2 °C 85 % 1022,4 hPa 0,0 l/m² 0 min 0 W/m² 12,9 km/h (3 Bft) 100,00 %
02.03.2026 02:18 6,4 °C 5,6 °C 2,2 °C 86 % 1022,4 hPa 0,0 l/m² 0 min 0 W/m² 12,9 km/h (3 Bft) 100,00 %
02.03.2026 02:20 6,4 °C 5,6 °C 2,2 °C 86 % 1022,4 hPa 0,0 l/m² 0 min 0 W/m² 12,9 km/h (3 Bft) 100,00 %
02.03.2026 02:22 6,4 °C 5,6 °C 2,2 °C 86 % 1022,4 hPa 0,0 l/m² 0 min 0 W/m² 6,4 km/h (2 Bft) 100,00 %
02.03.2026 02:24 6,4 °C 5,6 °C 2,2 °C 86 % 1022,4 hPa 0,0 l/m² 0 min 0 W/m² 6,4 km/h (2 Bft) 100,00 %
02.03.2026 02:26 6,3 °C 5,6 °C 2,2 °C 86 % 1022,4 hPa 0,0 l/m² 0 min 0 W/m² 6,4 km/h (2 Bft) 100,00 %
02.03.2026 02:28 6,3 °C 5,6 °C 2,2 °C 86 % 1022,3 hPa 0,0 l/m² 0 min 0 W/m² 12,9 km/h (3 Bft) 100,00 %
02.03.2026 02:30 6,3 °C 5,6 °C 2,2 °C 86 % 1022,3 hPa 0,0 l/m² 0 min 0 W/m² 12,9 km/h (3 Bft) 100,00 %
02.03.2026 02:32 6,3 °C 5,6 °C 2,2 °C 86 % 1022,3 hPa 0,0 l/m² 0 min 0 W/m² 12,9 km/h (3 Bft) 97,87 %
02.03.2026 02:34 6,3 °C 5,6 °C 2,2 °C 86 % 1022,3 hPa 0,0 l/m² 0 min 0 W/m² 6,4 km/h (2 Bft) 54,55 %
02.03.2026 02:36 6,3 °C 5,6 °C 2,2 °C 86 % 1022,3 hPa 0,0 l/m² 0 min 0 W/m² 6,4 km/h (2 Bft) 100,00 %
02.03.2026 02:38 6,3 °C 5,6 °C 2,2 °C 86 % 1022,3 hPa 0,0 l/m² 0 min 0 W/m² 12,9 km/h (3 Bft) 100,00 %
02.03.2026 02:40 6,3 °C 5,6 °C 2,2 °C 86 % 1022,3 hPa 0,0 l/m² 0 min 0 W/m² 6,4 km/h (2 Bft) 97,87 %
02.03.2026 02:42 6,3 °C 5,6 °C 2,2 °C 86 % 1022,3 hPa 0,0 l/m² 0 min 0 W/m² 12,9 km/h (3 Bft) 97,87 %
02.03.2026 02:44 6,3 °C 5,6 °C 2,2 °C 86 % 1022,2 hPa 0,0 l/m² 0 min 0 W/m² 6,4 km/h (2 Bft) 97,87 %
02.03.2026 02:46 6,3 °C 5,6 °C 2,2 °C 86 % 1022,2 hPa 0,0 l/m² 0 min 0 W/m² 3,2 km/h (1 Bft) 97,87 %
02.03.2026 02:48 6,3 °C 5,6 °C 2,2 °C 86 % 1022,2 hPa 0,0 l/m² 0 min 0 W/m² 3,2 km/h (1 Bft) 100,00 %
02.03.2026 02:50 6,3 °C 5,6 °C 1,7 °C 86 % 1022,2 hPa 0,0 l/m² 0 min 0 W/m² 16,1 km/h (3 Bft) 100,00 %
02.03.2026 02:52 6,2 °C 5,6 °C 1,7 °C 87 % 1022,2 hPa 0,0 l/m² 0 min 0 W/m² 6,4 km/h (2 Bft) 100,00 %
02.03.2026 02:54 6,2 °C 5,6 °C 2,2 °C 87 % 1022,2 hPa 0,0 l/m² 0 min 0 W/m² 12,9 km/h (3 Bft) 100,00 %
02.03.2026 02:56 6,2 °C 5,6 °C 2,2 °C 87 % 1022,2 hPa 0,0 l/m² 0 min 0 W/m² 12,9 km/h (3 Bft) 100,00 %
02.03.2026 02:58 6,2 °C 5,6 °C 2,2 °C 87 % 1022,2 hPa 0,0 l/m² 0 min 0 W/m² 12,9 km/h (3 Bft) 100,00 %
02.03.2026 03:00 6,2 °C 5,6 °C 2,2 °C 87 % 1022,1 hPa 0,0 l/m² 0 min 0 W/m² 16,1 km/h (3 Bft) 100,00 %
02.03.2026 03:02 6,2 °C 5,6 °C 2,2 °C 87 % 1022,1 hPa 0,0 l/m² 0 min 0 W/m² 12,9 km/h (3 Bft) 100,00 %
02.03.2026 03:04 6,2 °C 5,6 °C 1,7 °C 87 % 1022,1 hPa 0,0 l/m² 0 min 0 W/m² 9,7 km/h (2 Bft) 100,00 %
02.03.2026 03:06 6,2 °C 5,6 °C 1,7 °C 87 % 1022,1 hPa 0,0 l/m² 0 min 0 W/m² 6,4 km/h (2 Bft) 100,00 %
02.03.2026 03:08 6,2 °C 5,6 °C 1,7 °C 87 % 1022,1 hPa 0,0 l/m² 0 min 0 W/m² 12,9 km/h (3 Bft) 100,00 %
02.03.2026 03:10 6,2 °C 5,6 °C 1,7 °C 87 % 1022,1 hPa 0,0 l/m² 0 min 0 W/m² 19,3 km/h (3 Bft) 100,00 %
02.03.2026 03:12 6,2 °C 5,6 °C 1,7 °C 87 % 1022,0 hPa 0,0 l/m² 0 min 0 W/m² 9,7 km/h (2 Bft) 100,00 %
02.03.2026 03:14 6,2 °C 5,0 °C 1,7 °C 87 % 1022,1 hPa 0,0 l/m² 0 min 0 W/m² 6,4 km/h (2 Bft) 97,87 %
02.03.2026 03:16 6,2 °C 5,0 °C 1,7 °C 87 % 1022,0 hPa 0,0 l/m² 0 min 0 W/m² 6,4 km/h (2 Bft) 97,87 %
02.03.2026 03:18 6,1 °C 5,0 °C 1,7 °C 87 % 1022,1 hPa 0,0 l/m² 0 min 0 W/m² 12,9 km/h (3 Bft) 97,87 %
02.03.2026 03:20 6,1 °C 5,0 °C 1,7 °C 87 % 1022,0 hPa 0,0 l/m² 0 min 0 W/m² 6,4 km/h (2 Bft) 95,74 %
02.03.2026 03:22 6,1 °C 5,0 °C 1,7 °C 87 % 1022,0 hPa 0,0 l/m² 0 min 0 W/m² 6,4 km/h (2 Bft) 95,74 %
02.03.2026 03:24 6,1 °C 5,0 °C 1,7 °C 87 % 1022,0 hPa 0,0 l/m² 0 min 0 W/m² 6,4 km/h (2 Bft) 97,83 %
02.03.2026 03:26 6,1 °C 5,0 °C 1,7 °C 87 % 1022,0 hPa 0,0 l/m² 0 min 0 W/m² 12,9 km/h (3 Bft) 93,62 %
02.03.2026 03:28 6,1 °C 5,0 °C 1,7 °C 87 % 1022,1 hPa 0,0 l/m² 0 min 0 W/m² 16,1 km/h (3 Bft) 93,62 %
02.03.2026 03:30 6,1 °C 5,0 °C 1,7 °C 88 % 1022,0 hPa 0,0 l/m² 0 min 0 W/m² 12,9 km/h (3 Bft) 93,62 %
02.03.2026 03:32 6,1 °C 5,0 °C 1,7 °C 88 % 1022,0 hPa 0,0 l/m² 0 min 0 W/m² 6,4 km/h (2 Bft) 93,62 %
02.03.2026 03:34 6,0 °C 5,0 °C 1,7 °C 88 % 1022,0 hPa 0,0 l/m² 0 min 0 W/m² 9,7 km/h (2 Bft) 92,86 %
02.03.2026 03:36 6,0 °C 5,0 °C 1,7 °C 88 % 1021,9 hPa 0,0 l/m² 0 min 0 W/m² 16,1 km/h (3 Bft) 93,62 %
02.03.2026 03:38 6,0 °C 5,0 °C 1,7 °C 88 % 1022,0 hPa 0,0 l/m² 0 min 0 W/m² 12,9 km/h (3 Bft) 93,48 %
02.03.2026 03:40 6,0 °C 5,0 °C 1,7 °C 88 % 1021,9 hPa 0,0 l/m² 0 min 0 W/m² 12,9 km/h (3 Bft) 93,62 %
02.03.2026 03:42 6,0 °C 5,0 °C 1,7 °C 88 % 1021,9 hPa 0,0 l/m² 0 min 0 W/m² 16,1 km/h (3 Bft) 93,62 %
02.03.2026 03:44 5,9 °C 5,0 °C 1,7 °C 88 % 1021,9 hPa 0,0 l/m² 0 min 0 W/m² 16,1 km/h (3 Bft) 93,62 %
02.03.2026 03:46 5,9 °C 5,0 °C 1,7 °C 88 % 1021,9 hPa 0,0 l/m² 0 min 0 W/m² 12,9 km/h (3 Bft) 89,36 %
02.03.2026 03:48 5,9 °C 5,0 °C 1,7 °C 88 % 1021,8 hPa 0,0 l/m² 0 min 0 W/m² 12,9 km/h (3 Bft) 93,62 %
02.03.2026 03:50 5,9 °C 5,0 °C 1,7 °C 88 % 1021,9 hPa 0,0 l/m² 0 min 0 W/m² 9,7 km/h (2 Bft) 93,48 %
02.03.2026 03:52 5,9 °C 5,0 °C 1,7 °C 88 % 1021,8 hPa 0,0 l/m² 0 min 0 W/m² 12,9 km/h (3 Bft) 91,49 %
02.03.2026 03:54 5,9 °C 5,0 °C 1,7 °C 88 % 1021,8 hPa 0,0 l/m² 0 min 0 W/m² 12,9 km/h (3 Bft) 91,49 %
02.03.2026 03:56 5,9 °C 5,0 °C 1,7 °C 88 % 1021,8 hPa 0,0 l/m² 0 min 0 W/m² 6,4 km/h (2 Bft) 95,74 %
02.03.2026 03:58 5,9 °C 5,0 °C 1,7 °C 88 % 1021,8 hPa 0,0 l/m² 0 min 0 W/m² 12,9 km/h (3 Bft) 95,74 %
02.03.2026 04:00 5,9 °C 5,0 °C 1,7 °C 88 % 1021,9 hPa 0,0 l/m² 0 min 0 W/m² 12,9 km/h (3 Bft) 95,74 %
02.03.2026 04:02 5,9 °C 5,0 °C 1,7 °C 88 % 1021,8 hPa 0,0 l/m² 0 min 0 W/m² 12,9 km/h (3 Bft) 94,44 %
02.03.2026 04:04 5,9 °C 5,0 °C 1,7 °C 88 % 1021,9 hPa 0,0 l/m² 0 min 0 W/m² 12,9 km/h (3 Bft) 97,87 %
02.03.2026 04:06 5,9 °C 5,0 °C 1,7 °C 88 % 1021,8 hPa 0,0 l/m² 0 min 0 W/m² 9,7 km/h (2 Bft) 97,87 %
02.03.2026 04:08 5,9 °C 5,0 °C 1,7 °C 88 % 1021,8 hPa 0,0 l/m² 0 min 0 W/m² 16,1 km/h (3 Bft) 100,00 %
02.03.2026 04:10 5,9 °C 5,0 °C 1,7 °C 88 % 1021,8 hPa 0,0 l/m² 0 min 0 W/m² 12,9 km/h (3 Bft) 97,87 %
02.03.2026 04:12 5,8 °C 5,0 °C 1,7 °C 88 % 1021,7 hPa 0,0 l/m² 0 min 0 W/m² 12,9 km/h (3 Bft) 97,87 %
02.03.2026 04:14 5,8 °C 5,0 °C 1,7 °C 88 % 1021,7 hPa 0,0 l/m² 0 min 0 W/m² 12,9 km/h (3 Bft) 97,83 %
02.03.2026 04:16 5,8 °C 5,0 °C 1,7 °C 88 % 1021,7 hPa 0,0 l/m² 0 min 0 W/m² 12,9 km/h (3 Bft) 97,87 %
02.03.2026 04:18 5,8 °C 5,0 °C 1,7 °C 88 % 1021,7 hPa 0,0 l/m² 0 min 0 W/m² 6,4 km/h (2 Bft) 100,00 %
02.03.2026 04:20 5,8 °C 5,0 °C 1,7 °C 88 % 1021,7 hPa 0,0 l/m² 0 min 0 W/m² 9,7 km/h (2 Bft) 100,00 %
02.03.2026 04:22 5,8 °C 5,0 °C 1,7 °C 88 % 1021,8 hPa 0,0 l/m² 0 min 0 W/m² 12,9 km/h (3 Bft) 95,74 %
02.03.2026 04:24 5,8 °C 5,0 °C 1,7 °C 88 % 1021,7 hPa 0,0 l/m² 0 min 0 W/m² 12,9 km/h (3 Bft) 100,00 %
02.03.2026 04:26 5,8 °C 5,0 °C 1,7 °C 88 % 1021,7 hPa 0,0 l/m² 0 min 0 W/m² 12,9 km/h (3 Bft) 100,00 %
02.03.2026 04:28 5,8 °C 5,0 °C 1,7 °C 88 % 1021,7 hPa 0,0 l/m² 0 min 0 W/m² 6,4 km/h (2 Bft) 100,00 %
02.03.2026 04:30 5,8 °C 5,0 °C 1,7 °C 88 % 1021,8 hPa 0,0 l/m² 0 min 0 W/m² 12,9 km/h (3 Bft) 97,87 %
02.03.2026 04:32 5,8 °C 5,0 °C 1,7 °C 88 % 1021,7 hPa 0,0 l/m² 0 min 0 W/m² 6,4 km/h (2 Bft) 100,00 %
02.03.2026 04:34 5,7 °C 5,0 °C 1,7 °C 88 % 1021,8 hPa 0,0 l/m² 0 min 0 W/m² 12,9 km/h (3 Bft) 100,00 %
02.03.2026 04:36 5,7 °C 5,0 °C 1,7 °C 88 % 1021,8 hPa 0,0 l/m² 0 min 0 W/m² 12,9 km/h (3 Bft) 100,00 %
02.03.2026 04:38 5,7 °C 5,0 °C 1,7 °C 88 % 1021,8 hPa 0,0 l/m² 0 min 0 W/m² 6,4 km/h (2 Bft) 97,87 %
02.03.2026 04:40 5,7 °C 5,0 °C 1,7 °C 88 % 1021,8 hPa 0,0 l/m² 0 min 0 W/m² 9,7 km/h (2 Bft) 100,00 %
02.03.2026 04:42 5,7 °C 5,0 °C 1,7 °C 88 % 1021,8 hPa 0,0 l/m² 0 min 0 W/m² 12,9 km/h (3 Bft) 100,00 %
02.03.2026 04:44 5,7 °C 5,0 °C 1,7 °C 88 % 1021,7 hPa 0,0 l/m² 0 min 0 W/m² 6,4 km/h (2 Bft) 100,00 %
02.03.2026 04:46 5,7 °C 5,0 °C 1,7 °C 88 % 1021,7 hPa 0,0 l/m² 0 min 0 W/m² 6,4 km/h (2 Bft) 97,87 %
02.03.2026 04:48 5,7 °C 5,0 °C 1,7 °C 88 % 1021,7 hPa 0,0 l/m² 0 min 0 W/m² 9,7 km/h (2 Bft) 100,00 %
02.03.2026 04:50 5,7 °C 5,0 °C 1,7 °C 88 % 1021,8 hPa 0,0 l/m² 0 min 0 W/m² 16,1 km/h (3 Bft) 97,87 %
02.03.2026 04:52 5,6 °C 5,0 °C 1,7 °C 88 % 1021,8 hPa 0,0 l/m² 0 min 0 W/m² 16,1 km/h (3 Bft) 97,87 %
02.03.2026 04:54 5,6 °C 5,0 °C 1,7 °C 88 % 1021,8 hPa 0,0 l/m² 0 min 0 W/m² 22,5 km/h (4 Bft) 100,00 %
02.03.2026 04:56 5,6 °C 5,0 °C 1,7 °C 88 % 1021,8 hPa 0,0 l/m² 0 min 0 W/m² 16,1 km/h (3 Bft) 100,00 %
02.03.2026 04:58 5,6 °C 5,0 °C 1,1 °C 88 % 1021,8 hPa 0,0 l/m² 0 min 0 W/m² 16,1 km/h (3 Bft) 100,00 %
02.03.2026 05:00 5,6 °C 5,0 °C 1,1 °C 88 % 1021,8 hPa 0,0 l/m² 0 min 0 W/m² 9,7 km/h (2 Bft) 100,00 %
02.03.2026 05:02 5,6 °C 5,0 °C 1,1 °C 88 % 1021,8 hPa 0,0 l/m² 0 min 0 W/m² 12,9 km/h (3 Bft) 100,00 %
02.03.2026 05:04 5,6 °C 5,0 °C 1,1 °C 88 % 1021,8 hPa 0,0 l/m² 0 min 0 W/m² 16,1 km/h (3 Bft) 100,00 %
02.03.2026 05:06 5,6 °C 5,0 °C 1,1 °C 89 % 1021,7 hPa 0,0 l/m² 0 min 0 W/m² 12,9 km/h (3 Bft) 100,00 %
02.03.2026 05:08 5,6 °C 5,0 °C 1,1 °C 89 % 1021,8 hPa 0,0 l/m² 0 min 0 W/m² 16,1 km/h (3 Bft) 97,87 %
02.03.2026 05:10 5,6 °C 5,0 °C 1,1 °C 89 % 1021,8 hPa 0,0 l/m² 0 min 0 W/m² 19,3 km/h (3 Bft) 100,00 %
02.03.2026 05:12 5,6 °C 5,0 °C 1,1 °C 89 % 1021,8 hPa 0,0 l/m² 0 min 0 W/m² 12,9 km/h (3 Bft) 97,83 %
02.03.2026 05:14 5,6 °C 5,0 °C 1,1 °C 89 % 1021,8 hPa 0,0 l/m² 0 min 0 W/m² 16,1 km/h (3 Bft) 97,87 %
02.03.2026 05:16 5,6 °C 5,0 °C 1,1 °C 89 % 1021,8 hPa 0,0 l/m² 0 min 0 W/m² 19,3 km/h (3 Bft) 95,74 %
02.03.2026 05:18 5,6 °C 5,0 °C 1,1 °C 89 % 1021,8 hPa 0,0 l/m² 0 min 0 W/m² 12,9 km/h (3 Bft) 97,87 %
02.03.2026 05:20 5,6 °C 5,0 °C 1,1 °C 89 % 1021,7 hPa 0,0 l/m² 0 min 0 W/m² 12,9 km/h (3 Bft) 93,62 %
02.03.2026 05:22 5,6 °C 5,0 °C 1,1 °C 89 % 1021,8 hPa 0,0 l/m² 0 min 0 W/m² 16,1 km/h (3 Bft) 95,74 %
02.03.2026 05:24 5,6 °C 5,0 °C 1,1 °C 89 % 1021,8 hPa 0,0 l/m² 0 min 0 W/m² 12,9 km/h (3 Bft) 97,83 %
02.03.2026 05:26 5,5 °C 5,0 °C 1,1 °C 89 % 1021,8 hPa 0,0 l/m² 0 min 0 W/m² 16,1 km/h (3 Bft) 97,87 %
02.03.2026 05:28 5,5 °C 4,4 °C 1,1 °C 89 % 1021,8 hPa 0,0 l/m² 0 min 0 W/m² 16,1 km/h (3 Bft) 97,87 %
02.03.2026 05:30 5,5 °C 4,4 °C 1,1 °C 89 % 1021,8 hPa 0,0 l/m² 0 min 0 W/m² 9,7 km/h (2 Bft) 97,87 %
02.03.2026 05:32 5,5 °C 4,4 °C 1,1 °C 89 % 1021,8 hPa 0,0 l/m² 0 min 0 W/m² 12,9 km/h (3 Bft) 95,74 %
02.03.2026 05:34 5,5 °C 4,4 °C 1,1 °C 89 % 1021,8 hPa 0,0 l/m² 0 min 0 W/m² 16,1 km/h (3 Bft) 97,87 %
02.03.2026 05:36 5,5 °C 4,4 °C 1,1 °C 89 % 1021,8 hPa 0,0 l/m² 0 min 0 W/m² 6,4 km/h (2 Bft) 97,83 %
02.03.2026 05:38 5,4 °C 4,4 °C 1,1 °C 89 % 1021,8 hPa 0,0 l/m² 0 min 0 W/m² 12,9 km/h (3 Bft) 95,74 %
02.03.2026 05:40 5,4 °C 4,4 °C 1,1 °C 89 % 1021,8 hPa 0,0 l/m² 0 min 0 W/m² 9,7 km/h (2 Bft) 97,87 %
02.03.2026 05:42 5,4 °C 4,4 °C 1,1 °C 89 % 1021,8 hPa 0,0 l/m² 0 min 0 W/m² 12,9 km/h (3 Bft) 100,00 %
02.03.2026 05:44 5,4 °C 4,4 °C 1,1 °C 89 % 1021,8 hPa 0,0 l/m² 0 min 0 W/m² 12,9 km/h (3 Bft) 100,00 %
02.03.2026 05:46 5,4 °C 4,4 °C 1,1 °C 89 % 1021,8 hPa 0,0 l/m² 0 min 0 W/m² 12,9 km/h (3 Bft) 100,00 %
02.03.2026 05:48 5,4 °C 4,4 °C 1,1 °C 89 % 1021,8 hPa 0,0 l/m² 0 min 0 W/m² 9,7 km/h (2 Bft) 95,65 %
02.03.2026 05:50 5,4 °C 4,4 °C 1,1 °C 89 % 1021,9 hPa 0,0 l/m² 0 min 0 W/m² 12,9 km/h (3 Bft) 97,87 %
02.03.2026 05:52 5,4 °C 4,4 °C 1,1 °C 89 % 1021,9 hPa 0,0 l/m² 0 min 0 W/m² 6,4 km/h (2 Bft) 100,00 %
02.03.2026 05:54 5,4 °C 4,4 °C 1,1 °C 89 % 1021,8 hPa 0,0 l/m² 0 min 0 W/m² 6,4 km/h (2 Bft) 97,87 %
02.03.2026 05:56 5,4 °C 4,4 °C 1,1 °C 89 % 1021,8 hPa 0,0 l/m² 0 min 0 W/m² 9,7 km/h (2 Bft) 97,87 %
02.03.2026 05:58 5,4 °C 4,4 °C 1,1 °C 89 % 1021,8 hPa 0,0 l/m² 0 min 0 W/m² 9,7 km/h (2 Bft) 97,83 %
02.03.2026 06:00 5,4 °C 4,4 °C 1,1 °C 89 % 1021,8 hPa 0,0 l/m² 0 min 0 W/m² 6,4 km/h (2 Bft) 97,87 %
02.03.2026 06:02 5,4 °C 4,4 °C 1,1 °C 89 % 1021,8 hPa 0,0 l/m² 0 min 0 W/m² 9,7 km/h (2 Bft) 97,87 %
02.03.2026 06:04 5,4 °C 4,4 °C 1,1 °C 89 % 1021,7 hPa 0,0 l/m² 0 min 0 W/m² 12,9 km/h (3 Bft) 97,87 %
02.03.2026 06:07 5,3 °C 4,4 °C 1,1 °C 89 % 1021,6 hPa 0,0 l/m² 0 min 0 W/m² 12,9 km/h (3 Bft) 97,22 %
02.03.2026 06:08 5,3 °C 4,4 °C 1,1 °C 89 % 1021,6 hPa 0,0 l/m² 0 min 0 W/m² 6,4 km/h (2 Bft) 96,00 %
02.03.2026 06:12 5,3 °C 4,4 °C 1,1 °C 89 % 1021,6 hPa 0,0 l/m² 0 min 0 W/m² 16,1 km/h (3 Bft) 98,00 %
02.03.2026 06:14 5,3 °C 4,4 °C 1,1 °C 89 % 1021,7 hPa 0,0 l/m² 0 min 0 W/m² 12,9 km/h (3 Bft) 97,87 %
02.03.2026 06:16 5,3 °C 4,4 °C 1,1 °C 89 % 1021,6 hPa 0,0 l/m² 0 min 0 W/m² 12,9 km/h (3 Bft) 97,87 %
02.03.2026 06:18 5,3 °C 4,4 °C 1,1 °C 89 % 1021,7 hPa 0,0 l/m² 0 min 0 W/m² 12,9 km/h (3 Bft) 97,83 %
02.03.2026 06:20 5,3 °C 4,4 °C 1,1 °C 89 % 1021,7 hPa 0,0 l/m² 0 min 0 W/m² 6,4 km/h (2 Bft) 95,74 %
02.03.2026 06:22 5,3 °C 4,4 °C 1,1 °C 89 % 1021,7 hPa 0,0 l/m² 0 min 0 W/m² 6,4 km/h (2 Bft) 95,74 %
02.03.2026 06:24 5,3 °C 4,4 °C 1,1 °C 89 % 1021,7 hPa 0,0 l/m² 0 min 0 W/m² 6,4 km/h (2 Bft) 95,74 %
02.03.2026 06:26 5,3 °C 4,4 °C 1,1 °C 89 % 1021,6 hPa 0,0 l/m² 0 min 0 W/m² 6,4 km/h (2 Bft) 95,74 %
02.03.2026 06:28 5,3 °C 4,4 °C 1,1 °C 89 % 1021,6 hPa 0,0 l/m² 0 min 0 W/m² 6,4 km/h (2 Bft) 95,65 %
02.03.2026 06:30 5,3 °C 4,4 °C 1,1 °C 89 % 1021,6 hPa 0,0 l/m² 0 min 0 W/m² 6,4 km/h (2 Bft) 91,49 %
02.03.2026 06:32 5,3 °C 4,4 °C 1,1 °C 89 % 1021,5 hPa 0,0 l/m² 0 min 0 W/m² 6,4 km/h (2 Bft) 95,74 %
02.03.2026 06:34 5,3 °C 4,4 °C 1,1 °C 89 % 1021,6 hPa 0,0 l/m² 0 min 0 W/m² 12,9 km/h (3 Bft) 95,74 %
02.03.2026 06:36 5,3 °C 4,4 °C 1,1 °C 89 % 1021,6 hPa 0,0 l/m² 0 min 0 W/m² 6,4 km/h (2 Bft) 95,74 %
02.03.2026 06:38 5,3 °C 4,4 °C 1,1 °C 89 % 1021,5 hPa 0,0 l/m² 0 min 0 W/m² 6,4 km/h (2 Bft) 97,87 %
02.03.2026 06:40 5,3 °C 4,4 °C 1,1 °C 89 % 1021,6 hPa 0,0 l/m² 0 min 0 W/m² 6,4 km/h (2 Bft) 97,87 %
02.03.2026 06:42 5,2 °C 4,4 °C 1,1 °C 89 % 1021,5 hPa 0,0 l/m² 0 min 0 W/m² 9,7 km/h (2 Bft) 97,83 %
02.03.2026 06:44 5,2 °C 4,4 °C 1,1 °C 89 % 1021,5 hPa 0,0 l/m² 0 min 0 W/m² 9,7 km/h (2 Bft) 97,87 %
02.03.2026 06:46 5,2 °C 4,4 °C 1,1 °C 89 % 1021,6 hPa 0,0 l/m² 0 min 0 W/m² 12,9 km/h (3 Bft) 95,74 %
02.03.2026 06:48 5,2 °C 4,4 °C 1,1 °C 89 % 1021,6 hPa 0,0 l/m² 0 min 0 W/m² 12,9 km/h (3 Bft) 97,87 %
02.03.2026 06:50 5,2 °C 4,4 °C 1,1 °C 89 % 1021,6 hPa 0,0 l/m² 0 min 0 W/m² 12,9 km/h (3 Bft) 97,87 %
02.03.2026 06:52 5,2 °C 4,4 °C 1,1 °C 89 % 1021,6 hPa 0,0 l/m² 0 min 0 W/m² 12,9 km/h (3 Bft) 97,83 %
02.03.2026 06:54 5,2 °C 4,4 °C 1,1 °C 89 % 1021,6 hPa 0,0 l/m² 0 min 0 W/m² 16,1 km/h (3 Bft) 95,74 %
02.03.2026 06:56 5,2 °C 4,4 °C 1,1 °C 89 % 1021,6 hPa 0,0 l/m² 0 min 0 W/m² 12,9 km/h (3 Bft) 97,87 %
02.03.2026 06:58 5,2 °C 4,4 °C 1,1 °C 89 % 1021,7 hPa 0,0 l/m² 0 min 0 W/m² 12,9 km/h (3 Bft) 97,87 %
02.03.2026 07:00 5,2 °C 4,4 °C 1,1 °C 89 % 1021,6 hPa 0,0 l/m² 0 min 0 W/m² 9,7 km/h (2 Bft) 95,74 %
02.03.2026 07:02 5,2 °C 4,4 °C 1,1 °C 89 % 1021,7 hPa 0,0 l/m² 0 min 0 W/m² 16,1 km/h (3 Bft) 95,74 %
02.03.2026 07:04 5,2 °C 4,4 °C 1,1 °C 89 % 1021,7 hPa 0,0 l/m² 0 min 0 W/m² 22,5 km/h (4 Bft) 91,67 %
02.03.2026 07:06 5,2 °C 4,4 °C 1,1 °C 89 % 1021,6 hPa 0,0 l/m² 0 min 0 W/m² 12,9 km/h (3 Bft) 96,61 %
02.03.2026 07:08 5,2 °C 4,4 °C 1,1 °C 89 % 1021,6 hPa 0,0 l/m² 0 min 0 W/m² 12,9 km/h (3 Bft) 94,29 %
02.03.2026 07:10 5,2 °C 4,4 °C 1,1 °C 89 % 1021,6 hPa 0,0 l/m² 0 min 0 W/m² 16,1 km/h (3 Bft) 98,18 %
02.03.2026 07:12 5,2 °C 4,4 °C 1,1 °C 89 % 1021,6 hPa 0,0 l/m² 0 min 0 W/m² 12,9 km/h (3 Bft) 95,74 %
02.03.2026 07:14 5,2 °C 4,4 °C 1,1 °C 89 % 1021,6 hPa 0,0 l/m² 0 min 0 W/m² 12,9 km/h (3 Bft) 97,87 %
02.03.2026 07:16 5,2 °C 4,4 °C 1,1 °C 89 % 1021,7 hPa 0,0 l/m² 0 min 2 W/m² 12,9 km/h (3 Bft) 97,83 %
02.03.2026 07:18 5,2 °C 4,4 °C 1,1 °C 89 % 1021,7 hPa 0,0 l/m² 0 min 5 W/m² 12,9 km/h (3 Bft) 95,74 %
02.03.2026 07:20 5,2 °C 4,4 °C 1,1 °C 89 % 1021,7 hPa 0,0 l/m² 0 min 5 W/m² 12,9 km/h (3 Bft) 97,87 %
02.03.2026 07:22 5,2 °C 4,4 °C 1,1 °C 89 % 1021,7 hPa 0,0 l/m² 0 min 5 W/m² 12,9 km/h (3 Bft) 97,87 %
02.03.2026 07:24 5,2 °C 4,4 °C 1,1 °C 89 % 1021,7 hPa 0,0 l/m² 0 min 7 W/m² 6,4 km/h (2 Bft) 97,87 %
02.03.2026 07:26 5,2 °C 4,4 °C 1,1 °C 89 % 1021,6 hPa 0,0 l/m² 0 min 8 W/m² 12,9 km/h (3 Bft) 97,83 %
02.03.2026 07:28 5,3 °C 4,4 °C 1,1 °C 89 % 1021,7 hPa 0,0 l/m² 0 min 9 W/m² 12,9 km/h (3 Bft) 97,87 %
02.03.2026 07:30 5,3 °C 4,4 °C 1,1 °C 89 % 1021,7 hPa 0,0 l/m² 0 min 11 W/m² 12,9 km/h (3 Bft) 97,87 %
02.03.2026 07:32 5,3 °C 4,4 °C 1,1 °C 89 % 1021,7 hPa 0,0 l/m² 0 min 11 W/m² 16,1 km/h (3 Bft) 100,00 %
02.03.2026 07:34 5,3 °C 5,0 °C 1,1 °C 89 % 1021,7 hPa 0,0 l/m² 0 min 12 W/m² 19,3 km/h (3 Bft) 100,00 %
02.03.2026 07:36 5,3 °C 5,0 °C 1,1 °C 89 % 1021,7 hPa 0,0 l/m² 0 min 13 W/m² 16,1 km/h (3 Bft) 97,87 %
02.03.2026 07:38 5,3 °C 5,0 °C 1,1 °C 89 % 1021,8 hPa 0,0 l/m² 0 min 14 W/m² 12,9 km/h (3 Bft) 97,83 %
02.03.2026 07:40 5,3 °C 5,0 °C 1,1 °C 89 % 1021,8 hPa 0,0 l/m² 0 min 14 W/m² 6,4 km/h (2 Bft) 100,00 %
02.03.2026 07:42 5,3 °C 5,0 °C 1,1 °C 89 % 1021,8 hPa 0,0 l/m² 0 min 14 W/m² 12,9 km/h (3 Bft) 95,74 %
02.03.2026 07:44 5,3 °C 5,0 °C 1,1 °C 89 % 1021,8 hPa 0,0 l/m² 0 min 14 W/m² 16,1 km/h (3 Bft) 100,00 %
02.03.2026 07:49 5,3 °C 5,0 °C 1,1 °C 89 % 1021,8 hPa 0,0 l/m² 0 min 14 W/m² 16,1 km/h (3 Bft) 100,00 %
02.03.2026 07:50 5,3 °C 5,0 °C 1,1 °C 89 % 1021,8 hPa 0,0 l/m² 0 min 14 W/m² 12,9 km/h (3 Bft) 100,00 %
02.03.2026 07:52 5,3 °C 5,0 °C 1,1 °C 89 % 1021,8 hPa 0,0 l/m² 0 min 14 W/m² 12,9 km/h (3 Bft) 100,00 %
02.03.2026 07:54 5,4 °C 5,0 °C 1,1 °C 89 % 1021,9 hPa 0,0 l/m² 0 min 14 W/m² 12,9 km/h (3 Bft) 100,00 %
02.03.2026 07:56 5,4 °C 5,0 °C 1,1 °C 89 % 1021,9 hPa 0,0 l/m² 0 min 14 W/m² 16,1 km/h (3 Bft) 100,00 %
02.03.2026 07:58 5,4 °C 5,0 °C 1,1 °C 89 % 1021,8 hPa 0,0 l/m² 0 min 15 W/m² 12,9 km/h (3 Bft) 95,74 %
02.03.2026 08:00 5,4 °C 5,0 °C 1,1 °C 89 % 1021,9 hPa 0,0 l/m² 0 min 16 W/m² 12,9 km/h (3 Bft) 100,00 %
02.03.2026 08:02 5,4 °C 5,0 °C 1,1 °C 89 % 1021,9 hPa 0,0 l/m² 0 min 16 W/m² 12,9 km/h (3 Bft) 100,00 %
02.03.2026 08:04 5,4 °C 5,0 °C 1,1 °C 89 % 1022,0 hPa 0,0 l/m² 0 min 16 W/m² 16,1 km/h (3 Bft) 100,00 %
02.03.2026 08:06 5,5 °C 5,0 °C 1,7 °C 89 % 1021,9 hPa 0,0 l/m² 0 min 16 W/m² 12,9 km/h (3 Bft) 97,87 %
02.03.2026 08:08 5,5 °C 5,0 °C 1,7 °C 89 % 1022,0 hPa 0,0 l/m² 0 min 16 W/m² 12,9 km/h (3 Bft) 97,87 %
02.03.2026 08:10 5,5 °C 5,0 °C 1,7 °C 89 % 1021,9 hPa 0,0 l/m² 0 min 16 W/m² 16,1 km/h (3 Bft) 100,00 %
02.03.2026 08:12 5,6 °C 5,0 °C 1,7 °C 89 % 1022,0 hPa 0,0 l/m² 0 min 17 W/m² 16,1 km/h (3 Bft) 100,00 %
02.03.2026 08:14 5,6 °C 5,0 °C 1,7 °C 89 % 1022,0 hPa 0,0 l/m² 0 min 19 W/m² 19,3 km/h (3 Bft) 100,00 %
02.03.2026 08:16 5,6 °C 5,0 °C 1,7 °C 89 % 1022,0 hPa 0,0 l/m² 0 min 19 W/m² 16,1 km/h (3 Bft) 97,87 %
02.03.2026 08:18 5,6 °C 5,0 °C 1,7 °C 89 % 1022,0 hPa 0,0 l/m² 0 min 19 W/m² 16,1 km/h (3 Bft) 97,87 %
02.03.2026 08:20 5,6 °C 5,6 °C 1,7 °C 89 % 1022,0 hPa 0,0 l/m² 0 min 21 W/m² 19,3 km/h (3 Bft) 95,74 %
02.03.2026 08:22 5,7 °C 5,6 °C 1,7 °C 89 % 1022,0 hPa 0,0 l/m² 0 min 21 W/m² 22,5 km/h (4 Bft) 95,74 %
02.03.2026 08:24 5,7 °C 5,6 °C 1,7 °C 89 % 1022,0 hPa 0,0 l/m² 0 min 21 W/m² 25,7 km/h (4 Bft) 97,87 %
02.03.2026 08:26 5,7 °C 5,6 °C 1,7 °C 89 % 1022,0 hPa 0,0 l/m² 0 min 21 W/m² 19,3 km/h (3 Bft) 95,65 %
02.03.2026 08:28 5,8 °C 5,6 °C 1,7 °C 89 % 1022,0 hPa 0,0 l/m² 0 min 23 W/m² 16,1 km/h (3 Bft) 95,74 %
02.03.2026 08:30 5,8 °C 5,6 °C 1,7 °C 89 % 1022,1 hPa 0,0 l/m² 0 min 23 W/m² 22,5 km/h (4 Bft) 97,87 %
02.03.2026 08:32 5,8 °C 5,6 °C 1,7 °C 89 % 1022,0 hPa 0,0 l/m² 0 min 23 W/m² 19,3 km/h (3 Bft) 95,74 %
02.03.2026 08:34 5,9 °C 5,6 °C 1,7 °C 89 % 1022,1 hPa 0,0 l/m² 0 min 23 W/m² 19,3 km/h (3 Bft) 97,87 %
02.03.2026 08:36 5,9 °C 5,6 °C 1,7 °C 89 % 1022,0 hPa 0,0 l/m² 0 min 24 W/m² 16,1 km/h (3 Bft) 95,65 %
02.03.2026 08:38 6,0 °C 5,6 °C 2,2 °C 88 % 1022,0 hPa 0,0 l/m² 0 min 25 W/m² 16,1 km/h (3 Bft) 97,87 %
02.03.2026 08:40 6,1 °C 5,6 °C 2,2 °C 88 % 1022,0 hPa 0,0 l/m² 0 min 25 W/m² 22,5 km/h (4 Bft) 97,87 %
02.03.2026 08:42 6,1 °C 6,1 °C 2,2 °C 88 % 1022,0 hPa 0,0 l/m² 0 min 25 W/m² 12,9 km/h (3 Bft) 97,87 %
02.03.2026 08:44 6,1 °C 6,1 °C 2,2 °C 88 % 1022,0 hPa 0,0 l/m² 0 min 25 W/m² 19,3 km/h (3 Bft) 95,74 %
02.03.2026 08:46 6,2 °C 6,1 °C 2,2 °C 88 % 1022,0 hPa 0,0 l/m² 0 min 29 W/m² 19,3 km/h (3 Bft) 95,74 %
02.03.2026 08:48 6,2 °C 6,1 °C 2,2 °C 88 % 1022,1 hPa 0,0 l/m² 2 min 112 W/m² 19,3 km/h (3 Bft) 97,87 %
02.03.2026 08:50 6,3 °C 6,1 °C 2,2 °C 88 % 1022,0 hPa 0,0 l/m² 2 min 166 W/m² 12,9 km/h (3 Bft) 91,30 %
02.03.2026 08:52 6,3 °C 6,1 °C 2,2 °C 88 % 1022,0 hPa 0,0 l/m² 2 min 175 W/m² 16,1 km/h (3 Bft) 93,62 %
02.03.2026 08:54 6,4 °C 6,7 °C 2,2 °C 88 % 1022,0 hPa 0,0 l/m² 2 min 172 W/m² 12,9 km/h (3 Bft) 95,74 %
02.03.2026 08:56 6,5 °C 8,3 °C 2,2 °C 88 % 1022,0 hPa 0,0 l/m² 2 min 124 W/m² 16,1 km/h (3 Bft) 95,74 %
02.03.2026 08:58 6,6 °C 8,9 °C 2,2 °C 88 % 1022,1 hPa 0,0 l/m² 2 min 132 W/m² 19,3 km/h (3 Bft) 97,87 %
02.03.2026 09:00 6,7 °C 9,4 °C 2,8 °C 88 % 1022,1 hPa 0,0 l/m² 2 min 207 W/m² 16,1 km/h (3 Bft) 95,65 %
02.03.2026 09:02 6,8 °C 9,4 °C 2,8 °C 87 % 1022,1 hPa 0,0 l/m² 2 min 221 W/m² 16,1 km/h (3 Bft) 95,74 %
02.03.2026 09:04 6,9 °C 9,4 °C 2,8 °C 87 % 1022,0 hPa 0,0 l/m² 2 min 224 W/m² 16,1 km/h (3 Bft) 48,78 %
02.03.2026 09:06 7,1 °C 9,4 °C 2,8 °C 87 % 1022,1 hPa 0,0 l/m² 2 min 210 W/m² 16,1 km/h (3 Bft) 97,83 %
02.03.2026 09:08 7,1 °C 9,4 °C 2,8 °C 87 % 1022,1 hPa 0,0 l/m² 2 min 160 W/m² 22,5 km/h (4 Bft) 97,87 %
02.03.2026 09:10 7,2 °C 9,4 °C 2,8 °C 87 % 1022,1 hPa 0,0 l/m² 2 min 139 W/m² 19,3 km/h (3 Bft) 97,87 %
02.03.2026 09:12 7,3 °C 8,9 °C 2,8 °C 86 % 1022,0 hPa 0,0 l/m² 2 min 184 W/m² 19,3 km/h (3 Bft) 95,65 %
02.03.2026 09:14 7,4 °C 8,9 °C 2,8 °C 86 % 1022,0 hPa 0,0 l/m² 2 min 182 W/m² 22,5 km/h (4 Bft) 95,74 %
02.03.2026 09:16 7,5 °C 9,4 °C 3,3 °C 86 % 1022,0 hPa 0,0 l/m² 2 min 156 W/m² 16,1 km/h (3 Bft) 93,62 %
02.03.2026 09:18 7,6 °C 9,4 °C 3,3 °C 85 % 1022,1 hPa 0,0 l/m² 2 min 172 W/m² 19,3 km/h (3 Bft) 95,74 %
02.03.2026 09:20 7,6 °C 9,4 °C 3,3 °C 85 % 1022,1 hPa 0,0 l/m² 2 min 176 W/m² 19,3 km/h (3 Bft) 93,62 %
02.03.2026 09:22 7,7 °C 10,0 °C 3,3 °C 85 % 1022,1 hPa 0,0 l/m² 2 min 150 W/m² 19,3 km/h (3 Bft) 97,83 %
02.03.2026 09:24 7,8 °C 9,4 °C 3,3 °C 85 % 1022,0 hPa 0,0 l/m² 0 min 137 W/m² 19,3 km/h (3 Bft) 95,74 %
02.03.2026 09:26 7,9 °C 9,4 °C 3,3 °C 84 % 1022,1 hPa 0,0 l/m² 2 min 187 W/m² 19,3 km/h (3 Bft) 95,74 %
02.03.2026 09:28 8,0 °C 10,0 °C 3,3 °C 84 % 1022,1 hPa 0,0 l/m² 2 min 212 W/m² 16,1 km/h (3 Bft) 97,87 %
02.03.2026 09:30 8,1 °C 10,0 °C 3,9 °C 84 % 1022,0 hPa 0,0 l/m² 2 min 256 W/m² 22,5 km/h (4 Bft) 97,87 %
02.03.2026 09:32 8,2 °C 9,4 °C 3,9 °C 83 % 1022,2 hPa 0,0 l/m² 2 min 205 W/m² 22,5 km/h (4 Bft) 97,87 %
02.03.2026 09:34 8,3 °C 8,9 °C 3,9 °C 83 % 1022,1 hPa 0,0 l/m² 2 min 228 W/m² 19,3 km/h (3 Bft) 97,83 %
02.03.2026 09:36 8,3 °C 9,4 °C 3,9 °C 83 % 1022,1 hPa 0,0 l/m² 2 min 206 W/m² 12,9 km/h (3 Bft) 95,74 %
02.03.2026 09:38 8,4 °C 10,0 °C 3,9 °C 83 % 1022,1 hPa 0,0 l/m² 2 min 195 W/m² 12,9 km/h (3 Bft) 95,74 %
02.03.2026 09:40 8,6 °C 10,0 °C 3,9 °C 83 % 1022,1 hPa 0,0 l/m² 0 min 143 W/m² 19,3 km/h (3 Bft) 97,87 %
02.03.2026 09:42 8,6 °C 10,6 °C 3,9 °C 82 % 1022,2 hPa 0,0 l/m² 0 min 165 W/m² 12,9 km/h (3 Bft) 97,87 %
02.03.2026 09:44 8,7 °C 10,6 °C 4,4 °C 82 % 1022,2 hPa 0,0 l/m² 2 min 237 W/m² 12,9 km/h (3 Bft) 97,87 %
02.03.2026 09:46 8,8 °C 10,6 °C 4,4 °C 82 % 1022,2 hPa 0,0 l/m² 2 min 215 W/m² 19,3 km/h (3 Bft) 97,83 %
02.03.2026 09:48 8,9 °C 12,2 °C 4,4 °C 81 % 1022,2 hPa 0,0 l/m² 0 min 71 W/m² 12,9 km/h (3 Bft) 95,74 %
02.03.2026 09:50 9,0 °C 12,2 °C 4,4 °C 81 % 1022,2 hPa 0,0 l/m² 0 min 125 W/m² 19,3 km/h (3 Bft) 97,87 %
02.03.2026 09:52 9,1 °C 11,7 °C 4,4 °C 81 % 1022,2 hPa 0,0 l/m² 2 min 322 W/m² 16,1 km/h (3 Bft) 97,87 %
02.03.2026 09:54 9,1 °C 10,6 °C 4,4 °C 80 % 1022,2 hPa 0,0 l/m² 2 min 306 W/m² 19,3 km/h (3 Bft) 97,87 %
02.03.2026 09:56 9,2 °C 10,6 °C 4,4 °C 80 % 1022,2 hPa 0,0 l/m² 2 min 271 W/m² 22,5 km/h (4 Bft) 97,87 %
02.03.2026 09:58 9,3 °C 10,6 °C 4,4 °C 80 % 1022,2 hPa 0,0 l/m² 2 min 210 W/m² 19,3 km/h (3 Bft) 100,00 %
02.03.2026 10:00 9,3 °C 12,2 °C 5,0 °C 80 % 1022,2 hPa 0,0 l/m² 2 min 328 W/m² 19,3 km/h (3 Bft) 100,00 %
02.03.2026 10:02 9,4 °C 12,8 °C 5,0 °C 79 % 1022,2 hPa 0,0 l/m² 2 min 337 W/m² 16,1 km/h (3 Bft) 97,87 %
02.03.2026 10:04 9,4 °C 12,8 °C 5,0 °C 79 % 1022,2 hPa 0,0 l/m² 2 min 210 W/m² 19,3 km/h (3 Bft) 93,88 %
02.03.2026 10:06 9,6 °C 12,2 °C 5,0 °C 79 % 1022,2 hPa 0,0 l/m² 2 min 293 W/m² 19,3 km/h (3 Bft) 100,00 %
02.03.2026 10:08 9,6 °C 12,2 °C 5,6 °C 79 % 1022,2 hPa 0,0 l/m² 2 min 225 W/m² 19,3 km/h (3 Bft) 100,00 %
02.03.2026 10:10 9,7 °C 12,8 °C 5,6 °C 78 % 1022,3 hPa 0,0 l/m² 0 min 167 W/m² 25,7 km/h (4 Bft) 100,00 %
02.03.2026 10:12 9,7 °C 12,8 °C 5,6 °C 78 % 1022,2 hPa 0,0 l/m² 0 min 170 W/m² 25,7 km/h (4 Bft) 100,00 %
02.03.2026 10:14 9,8 °C 13,3 °C 5,6 °C 78 % 1022,2 hPa 0,0 l/m² 0 min 163 W/m² 19,3 km/h (3 Bft) 100,00 %
02.03.2026 10:16 9,8 °C 13,3 °C 5,6 °C 77 % 1022,2 hPa 0,0 l/m² 2 min 325 W/m² 19,3 km/h (3 Bft) 97,87 %
02.03.2026 10:18 9,9 °C 12,8 °C 6,1 °C 77 % 1022,3 hPa 0,0 l/m² 2 min 310 W/m² 22,5 km/h (4 Bft) 97,87 %
02.03.2026 10:20 10,0 °C 13,3 °C 6,1 °C 77 % 1022,2 hPa 0,0 l/m² 0 min 77 W/m² 19,3 km/h (3 Bft) 100,00 %
02.03.2026 10:22 10,1 °C 13,9 °C 6,1 °C 77 % 1022,2 hPa 0,0 l/m² 0 min 57 W/m² 22,5 km/h (4 Bft) 100,00 %
02.03.2026 10:24 10,1 °C 15,6 °C 6,1 °C 77 % 1022,2 hPa 0,0 l/m² 0 min 136 W/m² 16,1 km/h (3 Bft) 100,00 %
02.03.2026 10:26 10,2 °C 16,1 °C 6,1 °C 77 % 1022,2 hPa 0,0 l/m² 2 min 209 W/m² 16,1 km/h (3 Bft) 100,00 %
02.03.2026 10:28 10,3 °C 16,1 °C 6,7 °C 77 % 1022,2 hPa 0,0 l/m² 2 min 419 W/m² 22,5 km/h (4 Bft) 100,00 %
02.03.2026 10:30 10,4 °C 16,7 °C 6,7 °C 77 % 1022,2 hPa 0,0 l/m² 2 min 425 W/m² 19,3 km/h (3 Bft) 100,00 %
02.03.2026 10:32 10,5 °C 16,1 °C 6,7 °C 76 % 1022,2 hPa 0,0 l/m² 2 min 429 W/m² 25,7 km/h (4 Bft) 100,00 %
02.03.2026 10:34 10,6 °C 16,7 °C 6,7 °C 76 % 1022,2 hPa 0,0 l/m² 2 min 436 W/m² 25,7 km/h (4 Bft) 100,00 %
02.03.2026 10:36 10,7 °C 17,2 °C 7,2 °C 76 % 1022,2 hPa 0,0 l/m² 2 min 386 W/m² 16,1 km/h (3 Bft) 100,00 %
02.03.2026 10:38 10,8 °C 17,2 °C 7,2 °C 75 % 1022,2 hPa 0,0 l/m² 2 min 358 W/m² 22,5 km/h (4 Bft) 100,00 %
02.03.2026 10:40 10,9 °C 17,8 °C 7,2 °C 75 % 1022,2 hPa 0,0 l/m² 2 min 441 W/m² 12,9 km/h (3 Bft) 100,00 %
02.03.2026 10:42 11,1 °C 18,3 °C 7,8 °C 75 % 1022,2 hPa 0,0 l/m² 2 min 449 W/m² 12,9 km/h (3 Bft) 97,87 %
02.03.2026 10:44 11,2 °C 17,8 °C 7,8 °C 75 % 1022,2 hPa 0,0 l/m² 2 min 432 W/m² 22,5 km/h (4 Bft) 97,87 %
02.03.2026 10:46 11,3 °C 17,8 °C 7,8 °C 74 % 1022,2 hPa 0,0 l/m² 2 min 406 W/m² 22,5 km/h (4 Bft) 100,00 %
02.03.2026 10:48 11,4 °C 18,3 °C 7,8 °C 74 % 1022,2 hPa 0,0 l/m² 2 min 320 W/m² 22,5 km/h (4 Bft) 97,87 %
02.03.2026 10:50 11,6 °C 20,0 °C 8,3 °C 74 % 1022,1 hPa 0,0 l/m² 2 min 401 W/m² 12,9 km/h (3 Bft) 97,87 %
02.03.2026 10:52 11,8 °C 20,6 °C 8,3 °C 74 % 1022,2 hPa 0,0 l/m² 2 min 469 W/m² 22,5 km/h (4 Bft) 100,00 %
02.03.2026 10:54 11,9 °C 19,4 °C 8,9 °C 73 % 1022,2 hPa 0,0 l/m² 2 min 474 W/m² 16,1 km/h (3 Bft) 100,00 %
02.03.2026 10:56 12,0 °C 19,4 °C 8,9 °C 72 % 1022,2 hPa 0,0 l/m² 2 min 478 W/m² 25,7 km/h (4 Bft) 100,00 %
02.03.2026 10:58 12,1 °C 20,0 °C 9,4 °C 72 % 1022,2 hPa 0,0 l/m² 2 min 481 W/m² 16,1 km/h (3 Bft) 97,87 %
02.03.2026 11:00 12,2 °C 18,9 °C 10,0 °C 71 % 1022,2 hPa 0,0 l/m² 2 min 484 W/m² 25,7 km/h (4 Bft) 97,87 %
02.03.2026 11:02 12,3 °C 18,9 °C 11,1 °C 71 % 1022,2 hPa 0,0 l/m² 2 min 487 W/m² 22,5 km/h (4 Bft) 97,87 %
02.03.2026 11:04 12,3 °C 19,4 °C 11,7 °C 71 % 1022,2 hPa 0,0 l/m² 2 min 489 W/m² 19,3 km/h (3 Bft) 97,96 %
02.03.2026 11:06 12,4 °C 20,0 °C 12,8 °C 71 % 1022,2 hPa 0,0 l/m² 2 min 492 W/m² 12,9 km/h (3 Bft) 95,74 %
02.03.2026 11:08 12,6 °C 20,0 °C 13,3 °C 71 % 1022,1 hPa 0,0 l/m² 2 min 496 W/m² 19,3 km/h (3 Bft) 97,83 %
02.03.2026 11:10 12,6 °C 20,6 °C 13,3 °C 71 % 1022,1 hPa 0,0 l/m² 2 min 498 W/m² 16,1 km/h (3 Bft) 97,22 %
02.03.2026 11:12 12,7 °C 21,1 °C 13,9 °C 71 % 1022,1 hPa 0,0 l/m² 2 min 501 W/m² 19,3 km/h (3 Bft) 95,65 %
02.03.2026 11:14 12,8 °C 21,1 °C 14,4 °C 70 % 1022,1 hPa 0,0 l/m² 2 min 504 W/m² 19,3 km/h (3 Bft) 97,87 %
02.03.2026 11:16 12,9 °C 21,1 °C 14,4 °C 69 % 1022,1 hPa 0,0 l/m² 2 min 506 W/m² 19,3 km/h (3 Bft) 95,74 %
02.03.2026 11:18 13,0 °C 21,1 °C 14,4 °C 69 % 1022,1 hPa 0,0 l/m² 2 min 509 W/m² 22,5 km/h (4 Bft) 97,87 %
02.03.2026 11:20 13,1 °C 20,6 °C 14,4 °C 69 % 1022,1 hPa 0,0 l/m² 2 min 512 W/m² 22,5 km/h (4 Bft) 97,87 %
02.03.2026 11:22 13,2 °C 20,0 °C 14,4 °C 68 % 1022,1 hPa 0,0 l/m² 2 min 515 W/m² 22,5 km/h (4 Bft) 93,62 %
02.03.2026 11:24 13,2 °C 21,1 °C 15,0 °C 68 % 1022,1 hPa 0,0 l/m² 2 min 516 W/m² 25,7 km/h (4 Bft) 97,83 %
02.03.2026 11:26 13,3 °C 20,6 °C 15,0 °C 68 % 1022,1 hPa 0,0 l/m² 2 min 519 W/m² 22,5 km/h (4 Bft) 95,74 %
02.03.2026 11:28 13,4 °C 20,6 °C 15,0 °C 68 % 1022,1 hPa 0,0 l/m² 2 min 521 W/m² 22,5 km/h (4 Bft) 97,87 %
02.03.2026 11:30 13,4 °C 21,1 °C 15,0 °C 68 % 1022,1 hPa 0,0 l/m² 2 min 523 W/m² 16,1 km/h (3 Bft) 95,74 %
02.03.2026 11:32 13,5 °C 20,6 °C 15,0 °C 68 % 1022,1 hPa 0,0 l/m² 2 min 526 W/m² 22,5 km/h (4 Bft) 100,00 %
02.03.2026 11:34 13,6 °C 21,7 °C 15,6 °C 68 % 1022,0 hPa 0,0 l/m² 2 min 527 W/m² 16,1 km/h (3 Bft) 97,83 %
02.03.2026 11:36 13,7 °C 21,1 °C 15,6 °C 68 % 1022,0 hPa 0,0 l/m² 2 min 529 W/m² 19,3 km/h (3 Bft) 95,74 %
02.03.2026 11:38 13,7 °C 20,6 °C 15,6 °C 67 % 1021,9 hPa 0,0 l/m² 2 min 531 W/m² 19,3 km/h (3 Bft) 100,00 %
02.03.2026 11:40 13,8 °C 21,1 °C 16,1 °C 67 % 1022,0 hPa 0,0 l/m² 2 min 533 W/m² 16,1 km/h (3 Bft) 100,00 %
02.03.2026 11:42 13,8 °C 20,6 °C 15,6 °C 67 % 1021,9 hPa 0,0 l/m² 2 min 534 W/m² 19,3 km/h (3 Bft) 97,87 %
02.03.2026 11:44 13,9 °C 21,1 °C 15,6 °C 67 % 1021,9 hPa 0,0 l/m² 2 min 536 W/m² 19,3 km/h (3 Bft) 93,62 %
02.03.2026 11:46 13,9 °C 20,6 °C 15,6 °C 66 % 1021,9 hPa 0,0 l/m² 2 min 537 W/m² 25,7 km/h (4 Bft) 97,83 %
02.03.2026 11:48 13,9 °C 20,6 °C 15,6 °C 66 % 1021,9 hPa 0,0 l/m² 2 min 540 W/m² 22,5 km/h (4 Bft) 97,87 %
02.03.2026 11:50 13,9 °C 20,0 °C 15,0 °C 65 % 1021,9 hPa 0,0 l/m² 2 min 541 W/m² 25,7 km/h (4 Bft) 97,87 %
02.03.2026 11:52 14,0 °C 20,0 °C 15,0 °C 65 % 1021,9 hPa 0,0 l/m² 2 min 543 W/m² 25,7 km/h (4 Bft) 97,87 %
02.03.2026 11:54 14,0 °C 20,6 °C 15,0 °C 65 % 1021,9 hPa 0,0 l/m² 2 min 545 W/m² 25,7 km/h (4 Bft) 97,87 %
02.03.2026 11:56 14,0 °C 21,1 °C 15,0 °C 65 % 1021,8 hPa 0,0 l/m² 2 min 546 W/m² 16,1 km/h (3 Bft) 97,87 %
02.03.2026 11:58 14,1 °C 21,1 °C 15,0 °C 66 % 1021,9 hPa 0,0 l/m² 2 min 547 W/m² 19,3 km/h (3 Bft) 97,83 %
02.03.2026 12:00 14,2 °C 20,0 °C 14,4 °C 66 % 1021,8 hPa 0,0 l/m² 2 min 548 W/m² 22,5 km/h (4 Bft) 55,32 %
02.03.2026 12:02 14,3 °C 19,4 °C 15,0 °C 65 % 1021,8 hPa 0,0 l/m² 2 min 550 W/m² 16,1 km/h (3 Bft) 95,24 %
02.03.2026 12:04 14,3 °C 18,9 °C 14,4 °C 65 % 1021,8 hPa 0,0 l/m² 2 min 552 W/m² 22,5 km/h (4 Bft) 97,96 %
02.03.2026 12:07 14,3 °C 17,8 °C 14,4 °C 64 % 1021,7 hPa 0,0 l/m² 3 min 554 W/m² 29,0 km/h (5 Bft) 97,14 %
02.03.2026 12:08 14,3 °C 17,8 °C 14,4 °C 64 % 1021,7 hPa 0,0 l/m² 1 min 555 W/m² 22,5 km/h (4 Bft) 100,00 %
02.03.2026 12:12 14,5 °C 15,6 °C 13,3 °C 64 % 1021,7 hPa 0,0 l/m² 4 min 557 W/m² 22,5 km/h (4 Bft) 97,96 %
02.03.2026 12:14 14,6 °C 15,6 °C 12,8 °C 64 % 1021,7 hPa 0,0 l/m² 2 min 558 W/m² 22,5 km/h (4 Bft) 93,62 %
02.03.2026 12:16 14,6 °C 16,7 °C 12,2 °C 63 % 1021,8 hPa 0,0 l/m² 2 min 558 W/m² 19,3 km/h (3 Bft) 94,44 %
02.03.2026 12:18 14,7 °C 16,7 °C 12,2 °C 64 % 1021,7 hPa 0,0 l/m² 2 min 559 W/m² 16,1 km/h (3 Bft) 96,00 %
02.03.2026 12:20 14,8 °C 17,2 °C 12,2 °C 63 % 1021,7 hPa 0,0 l/m² 2 min 562 W/m² 22,5 km/h (4 Bft) 97,22 %
02.03.2026 12:22 14,8 °C 17,8 °C 12,2 °C 63 % 1021,7 hPa 0,0 l/m² 2 min 562 W/m² 19,3 km/h (3 Bft) 97,87 %
02.03.2026 12:24 14,9 °C 18,3 °C 12,8 °C 63 % 1021,8 hPa 0,0 l/m² 2 min 563 W/m² 22,5 km/h (4 Bft) 97,87 %
02.03.2026 12:26 14,9 °C 18,3 °C 13,3 °C 62 % 1021,7 hPa 0,0 l/m² 2 min 563 W/m² 22,5 km/h (4 Bft) 97,87 %
02.03.2026 12:28 15,0 °C 18,3 °C 13,9 °C 62 % 1021,7 hPa 0,0 l/m² 2 min 564 W/m² 16,1 km/h (3 Bft) 96,30 %
02.03.2026 12:30 15,1 °C 18,9 °C 13,9 °C 62 % 1021,7 hPa 0,0 l/m² 2 min 565 W/m² 19,3 km/h (3 Bft) 98,00 %
02.03.2026 12:32 15,1 °C 20,0 °C 14,4 °C 62 % 1021,6 hPa 0,0 l/m² 2 min 566 W/m² 16,1 km/h (3 Bft) 100,00 %
02.03.2026 12:34 15,2 °C 21,7 °C 15,0 °C 62 % 1021,7 hPa 0,0 l/m² 2 min 568 W/m² 16,1 km/h (3 Bft) 100,00 %
02.03.2026 12:36 15,3 °C 22,2 °C 14,4 °C 62 % 1021,6 hPa 0,0 l/m² 2 min 567 W/m² 22,5 km/h (4 Bft) 100,00 %
02.03.2026 12:38 15,4 °C 22,2 °C 13,9 °C 62 % 1021,7 hPa 0,0 l/m² 2 min 568 W/m² 25,7 km/h (4 Bft) 100,00 %
02.03.2026 12:40 15,6 °C 22,2 °C 13,3 °C 62 % 1021,7 hPa 0,0 l/m² 2 min 566 W/m² 19,3 km/h (3 Bft) 100,00 %
02.03.2026 12:42 15,6 °C 23,3 °C 12,8 °C 61 % 1021,6 hPa 0,0 l/m² 2 min 566 W/m² 19,3 km/h (3 Bft) 100,00 %
02.03.2026 12:44 15,7 °C 22,8 °C 12,8 °C 61 % 1021,6 hPa 0,0 l/m² 2 min 567 W/m² 29,0 km/h (5 Bft) 100,00 %
02.03.2026 12:46 15,7 °C 22,8 °C 12,2 °C 61 % 1021,6 hPa 0,0 l/m² 2 min 568 W/m² 19,3 km/h (3 Bft) 100,00 %
02.03.2026 12:48 15,8 °C 22,8 °C 11,7 °C 61 % 1021,6 hPa 0,0 l/m² 2 min 567 W/m² 16,1 km/h (3 Bft) 100,00 %
02.03.2026 12:50 15,9 °C 23,3 °C 11,7 °C 61 % 1021,6 hPa 0,0 l/m² 2 min 567 W/m² 22,5 km/h (4 Bft) 100,00 %
02.03.2026 12:52 15,9 °C 23,3 °C 11,7 °C 61 % 1021,6 hPa 0,0 l/m² 2 min 566 W/m² 16,1 km/h (3 Bft) 97,87 %
02.03.2026 12:54 16,0 °C 23,3 °C 11,7 °C 61 % 1021,5 hPa 0,0 l/m² 2 min 567 W/m² 19,3 km/h (3 Bft) 100,00 %
02.03.2026 12:56 16,1 °C 23,3 °C 11,7 °C 60 % 1021,5 hPa 0,0 l/m² 2 min 566 W/m² 16,1 km/h (3 Bft) 95,74 %
02.03.2026 12:58 16,2 °C 23,9 °C 12,2 °C 60 % 1021,5 hPa 0,0 l/m² 2 min 566 W/m² 22,5 km/h (4 Bft) 97,83 %
02.03.2026 13:00 16,2 °C 23,9 °C 11,7 °C 59 % 1021,5 hPa 0,0 l/m² 2 min 565 W/m² 19,3 km/h (3 Bft) 97,87 %
02.03.2026 13:02 16,2 °C 23,9 °C 11,7 °C 59 % 1021,5 hPa 0,0 l/m² 2 min 565 W/m² 29,0 km/h (5 Bft) 97,87 %
02.03.2026 13:04 16,3 °C 22,8 °C 11,7 °C 59 % 1021,4 hPa 0,0 l/m² 2 min 564 W/m² 25,7 km/h (4 Bft) 97,87 %
02.03.2026 13:06 16,3 °C 22,8 °C 11,7 °C 59 % 1021,4 hPa 0,0 l/m² 2 min 564 W/m² 22,5 km/h (4 Bft) 95,74 %
02.03.2026 13:08 16,3 °C 23,3 °C 11,7 °C 59 % 1021,4 hPa 0,0 l/m² 2 min 564 W/m² 16,1 km/h (3 Bft) 97,87 %
02.03.2026 13:10 16,4 °C 24,4 °C 12,2 °C 59 % 1021,3 hPa 0,0 l/m² 2 min 563 W/m² 16,1 km/h (3 Bft) 97,83 %
02.03.2026 13:12 16,6 °C 24,4 °C 12,2 °C 59 % 1021,3 hPa 0,0 l/m² 2 min 563 W/m² 19,3 km/h (3 Bft) 95,74 %
02.03.2026 13:14 16,6 °C 23,9 °C 12,2 °C 58 % 1021,3 hPa 0,0 l/m² 2 min 563 W/m² 19,3 km/h (3 Bft) 97,87 %
02.03.2026 13:16 16,7 °C 23,9 °C 12,2 °C 58 % 1021,2 hPa 0,0 l/m² 2 min 561 W/m² 16,1 km/h (3 Bft) 97,87 %
02.03.2026 13:18 16,7 °C 23,3 °C 12,2 °C 57 % 1021,2 hPa 0,0 l/m² 2 min 560 W/m² 25,7 km/h (4 Bft) 97,87 %
02.03.2026 13:20 16,8 °C 23,3 °C 12,2 °C 57 % 1021,2 hPa 0,0 l/m² 2 min 558 W/m² 19,3 km/h (3 Bft) 97,87 %
02.03.2026 13:22 16,8 °C 23,9 °C 12,2 °C 57 % 1021,2 hPa 0,0 l/m² 2 min 557 W/m² 19,3 km/h (3 Bft) 95,65 %
02.03.2026 13:24 16,8 °C 23,3 °C 12,2 °C 56 % 1021,2 hPa 0,0 l/m² 2 min 555 W/m² 22,5 km/h (4 Bft) 93,62 %
02.03.2026 13:26 16,9 °C 23,3 °C 12,2 °C 56 % 1021,2 hPa 0,0 l/m² 2 min 555 W/m² 19,3 km/h (3 Bft) 97,87 %
02.03.2026 13:28 16,9 °C 23,9 °C 12,2 °C 57 % 1021,1 hPa 0,0 l/m² 2 min 554 W/m² 19,3 km/h (3 Bft) 97,87 %
02.03.2026 13:30 17,0 °C 24,4 °C 12,2 °C 57 % 1021,1 hPa 0,0 l/m² 2 min 551 W/m² 19,3 km/h (3 Bft) 97,87 %
02.03.2026 13:32 17,0 °C 23,9 °C 12,2 °C 56 % 1021,1 hPa 0,0 l/m² 2 min 552 W/m² 22,5 km/h (4 Bft) 100,00 %
02.03.2026 13:34 17,0 °C 23,3 °C 12,2 °C 56 % 1021,1 hPa 0,0 l/m² 2 min 550 W/m² 25,7 km/h (4 Bft) 100,00 %
02.03.2026 13:36 17,0 °C 22,8 °C 12,2 °C 56 % 1021,0 hPa 0,0 l/m² 2 min 548 W/m² 19,3 km/h (3 Bft) 100,00 %
02.03.2026 13:38 17,0 °C 22,2 °C 12,2 °C 56 % 1021,1 hPa 0,0 l/m² 2 min 547 W/m² 22,5 km/h (4 Bft) 97,87 %
02.03.2026 13:40 17,0 °C 22,8 °C 12,2 °C 57 % 1021,0 hPa 0,0 l/m² 2 min 545 W/m² 19,3 km/h (3 Bft) 100,00 %
02.03.2026 13:42 17,0 °C 22,8 °C 12,2 °C 57 % 1021,0 hPa 0,0 l/m² 2 min 542 W/m² 19,3 km/h (3 Bft) 100,00 %
02.03.2026 13:44 17,1 °C 22,8 °C 12,2 °C 57 % 1021,0 hPa 0,0 l/m² 2 min 541 W/m² 19,3 km/h (3 Bft) 100,00 %
02.03.2026 13:46 17,1 °C 22,2 °C 12,2 °C 56 % 1021,0 hPa 0,0 l/m² 2 min 540 W/m² 25,7 km/h (4 Bft) 100,00 %
02.03.2026 13:48 17,1 °C 22,2 °C 12,2 °C 57 % 1021,0 hPa 0,0 l/m² 2 min 538 W/m² 22,5 km/h (4 Bft) 100,00 %
02.03.2026 13:50 17,1 °C 21,7 °C 12,2 °C 57 % 1021,0 hPa 0,0 l/m² 2 min 535 W/m² 25,7 km/h (4 Bft) 97,87 %
02.03.2026 13:52 17,1 °C 21,7 °C 12,2 °C 57 % 1020,9 hPa 0,0 l/m² 2 min 535 W/m² 22,5 km/h (4 Bft) 100,00 %
02.03.2026 13:54 17,1 °C 21,7 °C 12,2 °C 57 % 1020,9 hPa 0,0 l/m² 2 min 533 W/m² 22,5 km/h (4 Bft) 100,00 %
02.03.2026 13:56 17,1 °C 21,7 °C 12,2 °C 56 % 1020,9 hPa 0,0 l/m² 2 min 532 W/m² 19,3 km/h (3 Bft) 100,00 %
02.03.2026 13:58 17,1 °C 22,2 °C 12,2 °C 56 % 1020,9 hPa 0,0 l/m² 2 min 529 W/m² 19,3 km/h (3 Bft) 100,00 %
02.03.2026 14:00 17,1 °C 22,8 °C 12,2 °C 56 % 1020,8 hPa 0,0 l/m² 2 min 528 W/m² 16,1 km/h (3 Bft) 97,87 %
02.03.2026 14:02 17,1 °C 23,3 °C 12,2 °C 56 % 1020,9 hPa 0,0 l/m² 2 min 527 W/m² 19,3 km/h (3 Bft) 97,87 %
02.03.2026 14:04 17,1 °C 23,3 °C 12,2 °C 57 % 1020,9 hPa 0,0 l/m² 2 min 523 W/m² 16,1 km/h (3 Bft) 100,00 %
02.03.2026 14:06 17,1 °C 22,8 °C 12,2 °C 56 % 1020,9 hPa 0,0 l/m² 2 min 520 W/m² 29,0 km/h (5 Bft) 100,00 %
02.03.2026 14:08 17,2 °C 22,2 °C 12,2 °C 57 % 1020,8 hPa 0,0 l/m² 2 min 518 W/m² 19,3 km/h (3 Bft) 97,87 %
02.03.2026 14:10 17,2 °C 22,2 °C 12,2 °C 56 % 1020,9 hPa 0,0 l/m² 2 min 517 W/m² 19,3 km/h (3 Bft) 97,87 %
02.03.2026 14:12 17,2 °C 22,2 °C 12,2 °C 56 % 1020,9 hPa 0,0 l/m² 2 min 513 W/m² 19,3 km/h (3 Bft) 100,00 %
02.03.2026 14:14 17,2 °C 22,2 °C 12,2 °C 56 % 1020,8 hPa 0,0 l/m² 2 min 512 W/m² 16,1 km/h (3 Bft) 97,87 %
02.03.2026 14:16 17,2 °C 22,2 °C 12,2 °C 56 % 1020,8 hPa 0,0 l/m² 2 min 509 W/m² 19,3 km/h (3 Bft) 95,74 %
02.03.2026 14:18 17,2 °C 22,2 °C 12,2 °C 57 % 1020,8 hPa 0,0 l/m² 2 min 505 W/m² 19,3 km/h (3 Bft) 95,74 %
02.03.2026 14:20 17,2 °C 22,8 °C 12,2 °C 57 % 1020,8 hPa 0,0 l/m² 2 min 503 W/m² 19,3 km/h (3 Bft) 95,65 %
02.03.2026 14:22 17,3 °C 22,2 °C 12,2 °C 57 % 1020,8 hPa 0,0 l/m² 2 min 500 W/m² 25,7 km/h (4 Bft) 93,62 %
02.03.2026 14:24 17,3 °C 22,2 °C 12,2 °C 57 % 1020,7 hPa 0,0 l/m² 2 min 497 W/m² 16,1 km/h (3 Bft) 95,74 %
02.03.2026 14:26 17,4 °C 22,8 °C 12,2 °C 57 % 1020,8 hPa 0,0 l/m² 2 min 494 W/m² 22,5 km/h (4 Bft) 95,74 %
02.03.2026 14:28 17,4 °C 22,2 °C 12,2 °C 56 % 1020,7 hPa 0,0 l/m² 2 min 491 W/m² 19,3 km/h (3 Bft) 95,74 %
02.03.2026 14:30 17,4 °C 21,1 °C 12,2 °C 56 % 1020,8 hPa 0,0 l/m² 2 min 489 W/m² 19,3 km/h (3 Bft) 93,62 %
02.03.2026 14:32 17,4 °C 21,7 °C 12,2 °C 56 % 1020,7 hPa 0,0 l/m² 2 min 486 W/m² 19,3 km/h (3 Bft) 95,65 %
02.03.2026 14:34 17,4 °C 21,7 °C 12,2 °C 56 % 1020,7 hPa 0,0 l/m² 2 min 484 W/m² 16,1 km/h (3 Bft) 95,74 %
02.03.2026 14:36 17,5 °C 22,2 °C 12,2 °C 56 % 1020,6 hPa 0,0 l/m² 2 min 480 W/m² 19,3 km/h (3 Bft) 95,74 %
02.03.2026 14:38 17,5 °C 21,7 °C 12,2 °C 56 % 1020,6 hPa 0,0 l/m² 2 min 477 W/m² 25,7 km/h (4 Bft) 93,62 %
02.03.2026 14:40 17,5 °C 21,7 °C 12,2 °C 56 % 1020,6 hPa 0,0 l/m² 2 min 474 W/m² 22,5 km/h (4 Bft) 95,74 %
02.03.2026 14:42 17,5 °C 22,2 °C 12,2 °C 56 % 1020,6 hPa 0,0 l/m² 2 min 470 W/m² 16,1 km/h (3 Bft) 93,48 %
02.03.2026 14:44 17,5 °C 21,7 °C 12,8 °C 56 % 1020,6 hPa 0,0 l/m² 2 min 468 W/m² 16,1 km/h (3 Bft) 95,74 %
02.03.2026 14:46 17,5 °C 21,1 °C 12,2 °C 55 % 1020,6 hPa 0,0 l/m² 2 min 462 W/m² 22,5 km/h (4 Bft) 95,74 %
02.03.2026 14:48 17,5 °C 21,1 °C 12,2 °C 55 % 1020,6 hPa 0,0 l/m² 2 min 460 W/m² 22,5 km/h (4 Bft) 93,62 %
02.03.2026 14:50 17,4 °C 21,1 °C 12,2 °C 55 % 1020,6 hPa 0,0 l/m² 2 min 456 W/m² 22,5 km/h (4 Bft) 95,74 %
02.03.2026 14:52 17,4 °C 21,7 °C 12,2 °C 56 % 1020,5 hPa 0,0 l/m² 2 min 454 W/m² 19,3 km/h (3 Bft) 95,74 %
02.03.2026 14:54 17,5 °C 21,7 °C 12,2 °C 55 % 1020,5 hPa 0,0 l/m² 2 min 449 W/m² 22,5 km/h (4 Bft) 91,30 %
02.03.2026 14:56 17,5 °C 21,7 °C 12,2 °C 56 % 1020,5 hPa 0,0 l/m² 2 min 445 W/m² 22,5 km/h (4 Bft) 95,74 %
02.03.2026 14:58 17,5 °C 21,7 °C 12,8 °C 56 % 1020,5 hPa 0,0 l/m² 2 min 442 W/m² 19,3 km/h (3 Bft) 95,74 %
02.03.2026 15:00 17,5 °C 21,7 °C 12,8 °C 55 % 1020,6 hPa 0,0 l/m² 2 min 438 W/m² 19,3 km/h (3 Bft) 95,74 %
02.03.2026 15:02 17,5 °C 21,1 °C 12,2 °C 55 % 1020,5 hPa 0,0 l/m² 2 min 436 W/m² 22,5 km/h (4 Bft) 97,87 %
02.03.2026 15:04 17,5 °C 21,7 °C 12,2 °C 56 % 1020,5 hPa 0,0 l/m² 2 min 432 W/m² 19,3 km/h (3 Bft) 95,74 %
02.03.2026 15:06 17,5 °C 21,7 °C 12,2 °C 56 % 1020,5 hPa 0,0 l/m² 2 min 428 W/m² 25,7 km/h (4 Bft) 98,00 %
02.03.2026 15:08 17,5 °C 21,1 °C 12,2 °C 56 % 1020,5 hPa 0,0 l/m² 2 min 424 W/m² 22,5 km/h (4 Bft) 94,44 %
02.03.2026 15:10 17,5 °C 21,7 °C 12,2 °C 55 % 1020,4 hPa 0,0 l/m² 2 min 420 W/m² 19,3 km/h (3 Bft) 97,87 %
02.03.2026 15:12 17,5 °C 21,1 °C 12,2 °C 55 % 1020,4 hPa 0,0 l/m² 2 min 416 W/m² 22,5 km/h (4 Bft) 97,87 %
02.03.2026 15:14 17,5 °C 21,1 °C 12,2 °C 56 % 1020,4 hPa 0,0 l/m² 2 min 411 W/m² 16,1 km/h (3 Bft) 97,87 %
02.03.2026 15:16 17,5 °C 21,1 °C 12,8 °C 56 % 1020,4 hPa 0,0 l/m² 2 min 408 W/m² 22,5 km/h (4 Bft) 95,74 %
02.03.2026 15:18 17,6 °C 21,1 °C 12,8 °C 56 % 1020,4 hPa 0,0 l/m² 2 min 403 W/m² 19,3 km/h (3 Bft) 97,87 %
02.03.2026 15:20 17,6 °C 21,1 °C 12,8 °C 56 % 1020,4 hPa 0,0 l/m² 2 min 399 W/m² 25,7 km/h (4 Bft) 95,65 %
02.03.2026 15:22 17,6 °C 21,1 °C 12,8 °C 56 % 1020,4 hPa 0,0 l/m² 2 min 395 W/m² 16,1 km/h (3 Bft) 100,00 %
02.03.2026 15:24 17,6 °C 21,1 °C 12,8 °C 56 % 1020,4 hPa 0,0 l/m² 2 min 391 W/m² 19,3 km/h (3 Bft) 97,87 %
02.03.2026 15:26 17,6 °C 21,1 °C 12,8 °C 56 % 1020,4 hPa 0,0 l/m² 2 min 387 W/m² 19,3 km/h (3 Bft) 97,87 %
02.03.2026 15:28 17,6 °C 20,6 °C 12,8 °C 56 % 1020,4 hPa 0,0 l/m² 2 min 384 W/m² 16,1 km/h (3 Bft) 95,74 %
02.03.2026 15:30 17,6 °C 20,6 °C 12,2 °C 56 % 1020,4 hPa 0,0 l/m² 2 min 380 W/m² 19,3 km/h (3 Bft) 97,87 %
02.03.2026 15:32 17,6 °C 20,0 °C 12,2 °C 56 % 1020,4 hPa 0,0 l/m² 2 min 374 W/m² 22,5 km/h (4 Bft) 97,83 %
02.03.2026 15:34 17,6 °C 20,0 °C 12,2 °C 56 % 1020,3 hPa 0,0 l/m² 2 min 370 W/m² 22,5 km/h (4 Bft) 97,87 %
02.03.2026 15:36 17,7 °C 20,6 °C 12,2 °C 56 % 1020,3 hPa 0,0 l/m² 2 min 366 W/m² 19,3 km/h (3 Bft) 97,87 %
02.03.2026 15:38 17,7 °C 20,6 °C 12,2 °C 56 % 1020,3 hPa 0,0 l/m² 2 min 361 W/m² 19,3 km/h (3 Bft) 95,74 %
02.03.2026 15:40 17,7 °C 20,6 °C 12,2 °C 56 % 1020,3 hPa 0,0 l/m² 2 min 358 W/m² 19,3 km/h (3 Bft) 95,74 %
02.03.2026 15:42 17,7 °C 20,6 °C 12,2 °C 56 % 1020,3 hPa 0,0 l/m² 2 min 352 W/m² 12,9 km/h (3 Bft) 97,87 %
02.03.2026 15:44 17,8 °C 21,1 °C 12,2 °C 56 % 1020,3 hPa 0,0 l/m² 2 min 348 W/m² 22,5 km/h (4 Bft) 97,83 %
02.03.2026 15:46 17,8 °C 20,6 °C 12,2 °C 56 % 1020,3 hPa 0,0 l/m² 2 min 343 W/m² 22,5 km/h (4 Bft) 97,87 %
02.03.2026 15:48 17,8 °C 20,0 °C 11,7 °C 56 % 1020,3 hPa 0,0 l/m² 2 min 338 W/m² 25,7 km/h (4 Bft) 97,87 %
02.03.2026 15:50 17,8 °C 20,0 °C 11,7 °C 55 % 1020,4 hPa 0,0 l/m² 2 min 332 W/m² 25,7 km/h (4 Bft) 95,74 %
02.03.2026 15:52 17,7 °C 19,4 °C 11,7 °C 55 % 1020,3 hPa 0,0 l/m² 2 min 328 W/m² 22,5 km/h (4 Bft) 95,74 %
02.03.2026 15:54 17,7 °C 19,4 °C 11,7 °C 55 % 1020,4 hPa 0,0 l/m² 2 min 323 W/m² 16,1 km/h (3 Bft) 100,00 %
02.03.2026 15:56 17,7 °C 20,0 °C 11,7 °C 55 % 1020,3 hPa 0,0 l/m² 2 min 318 W/m² 16,1 km/h (3 Bft) 100,00 %
02.03.2026 15:58 17,7 °C 20,0 °C 11,7 °C 56 % 1020,3 hPa 0,0 l/m² 2 min 313 W/m² 22,5 km/h (4 Bft) 100,00 %
02.03.2026 16:00 17,6 °C 19,4 °C 11,7 °C 56 % 1020,3 hPa 0,0 l/m² 2 min 308 W/m² 22,5 km/h (4 Bft) 100,00 %
02.03.2026 16:02 17,6 °C 19,4 °C 11,7 °C 56 % 1020,3 hPa 0,0 l/m² 2 min 303 W/m² 22,5 km/h (4 Bft) 100,00 %
02.03.2026 16:04 17,6 °C 18,9 °C 11,7 °C 56 % 1020,3 hPa 0,0 l/m² 2 min 297 W/m² 22,5 km/h (4 Bft) 100,00 %
02.03.2026 16:06 17,6 °C 19,4 °C 11,7 °C 56 % 1020,3 hPa 0,0 l/m² 2 min 292 W/m² 12,9 km/h (3 Bft) 97,87 %
02.03.2026 16:08 17,6 °C 19,4 °C 11,7 °C 57 % 1020,2 hPa 0,0 l/m² 2 min 287 W/m² 16,1 km/h (3 Bft) 100,00 %
02.03.2026 16:10 17,6 °C 18,9 °C 11,7 °C 56 % 1020,2 hPa 0,0 l/m² 2 min 281 W/m² 19,3 km/h (3 Bft) 100,00 %
02.03.2026 16:12 17,6 °C 18,3 °C 11,7 °C 56 % 1020,2 hPa 0,0 l/m² 2 min 275 W/m² 16,1 km/h (3 Bft) 100,00 %
02.03.2026 16:14 17,6 °C 17,2 °C 11,7 °C 57 % 1020,2 hPa 0,0 l/m² 2 min 270 W/m² 12,9 km/h (3 Bft) 100,00 %
02.03.2026 16:16 17,6 °C 16,7 °C 11,7 °C 56 % 1020,2 hPa 0,0 l/m² 2 min 264 W/m² 16,1 km/h (3 Bft) 100,00 %
02.03.2026 16:18 17,5 °C 16,7 °C 11,7 °C 56 % 1020,2 hPa 0,0 l/m² 2 min 258 W/m² 16,1 km/h (3 Bft) 100,00 %
02.03.2026 16:20 17,5 °C 16,1 °C 11,7 °C 56 % 1020,2 hPa 0,0 l/m² 2 min 253 W/m² 19,3 km/h (3 Bft) 97,87 %
02.03.2026 16:22 17,4 °C 16,1 °C 11,7 °C 57 % 1020,1 hPa 0,0 l/m² 2 min 246 W/m² 19,3 km/h (3 Bft) 100,00 %
02.03.2026 16:24 17,4 °C 16,1 °C 11,7 °C 57 % 1020,2 hPa 0,0 l/m² 2 min 240 W/m² 12,9 km/h (3 Bft) 100,00 %
02.03.2026 16:26 17,4 °C 16,1 °C 11,7 °C 57 % 1020,1 hPa 0,0 l/m² 2 min 233 W/m² 16,1 km/h (3 Bft) 95,74 %
02.03.2026 16:28 17,4 °C 16,1 °C 11,7 °C 57 % 1020,2 hPa 0,0 l/m² 2 min 227 W/m² 16,1 km/h (3 Bft) 100,00 %
02.03.2026 16:30 17,3 °C 16,1 °C 11,7 °C 57 % 1020,2 hPa 0,0 l/m² 2 min 220 W/m² 16,1 km/h (3 Bft) 100,00 %
02.03.2026 16:32 17,3 °C 16,1 °C 11,7 °C 57 % 1020,2 hPa 0,0 l/m² 2 min 213 W/m² 19,3 km/h (3 Bft) 100,00 %
02.03.2026 16:34 17,3 °C 15,6 °C 11,7 °C 57 % 1020,2 hPa 0,0 l/m² 2 min 207 W/m² 19,3 km/h (3 Bft) 100,00 %
02.03.2026 16:36 17,2 °C 15,6 °C 11,1 °C 57 % 1020,2 hPa 0,0 l/m² 2 min 178 W/m² 19,3 km/h (3 Bft) 100,00 %
02.03.2026 16:38 17,2 °C 15,6 °C 11,1 °C 57 % 1020,2 hPa 0,0 l/m² 0 min 78 W/m² 16,1 km/h (3 Bft) 100,00 %
02.03.2026 16:40 17,1 °C 15,6 °C 11,1 °C 57 % 1020,2 hPa 0,0 l/m² 0 min 39 W/m² 12,9 km/h (3 Bft) 100,00 %
02.03.2026 16:42 17,1 °C 15,6 °C 11,1 °C 57 % 1020,2 hPa 0,0 l/m² 0 min 37 W/m² 19,3 km/h (3 Bft) 100,00 %
02.03.2026 16:44 17,0 °C 15,6 °C 11,1 °C 57 % 1020,2 hPa 0,0 l/m² 0 min 37 W/m² 16,1 km/h (3 Bft) 97,87 %
02.03.2026 16:46 16,9 °C 15,6 °C 11,1 °C 57 % 1020,1 hPa 0,0 l/m² 0 min 35 W/m² 16,1 km/h (3 Bft) 100,00 %
02.03.2026 16:48 16,8 °C 15,6 °C 11,1 °C 58 % 1020,3 hPa 0,0 l/m² 0 min 34 W/m² 12,9 km/h (3 Bft) 100,00 %
02.03.2026 16:50 16,8 °C 15,6 °C 11,1 °C 58 % 1020,3 hPa 0,0 l/m² 0 min 32 W/m² 19,3 km/h (3 Bft) 100,00 %
02.03.2026 16:52 16,7 °C 15,6 °C 11,1 °C 58 % 1020,3 hPa 0,0 l/m² 0 min 31 W/m² 16,1 km/h (3 Bft) 93,62 %
02.03.2026 16:54 16,7 °C 15,6 °C 11,1 °C 58 % 1020,3 hPa 0,0 l/m² 0 min 30 W/m² 16,1 km/h (3 Bft) 97,83 %
02.03.2026 16:56 16,6 °C 15,6 °C 11,1 °C 58 % 1020,2 hPa 0,0 l/m² 0 min 30 W/m² 12,9 km/h (3 Bft) 97,87 %
02.03.2026 16:58 16,6 °C 15,6 °C 11,1 °C 59 % 1020,3 hPa 0,0 l/m² 0 min 30 W/m² 12,9 km/h (3 Bft) 97,87 %
02.03.2026 17:00 16,5 °C 15,6 °C 11,1 °C 59 % 1020,3 hPa 0,0 l/m² 0 min 29 W/m² 12,9 km/h (3 Bft) 97,87 %
02.03.2026 17:02 16,4 °C 15,6 °C 11,1 °C 59 % 1020,3 hPa 0,0 l/m² 0 min 28 W/m² 6,4 km/h (2 Bft) 97,87 %
02.03.2026 17:04 16,4 °C 15,0 °C 11,1 °C 59 % 1020,3 hPa 0,0 l/m² 0 min 28 W/m² 19,3 km/h (3 Bft) 95,74 %
02.03.2026 17:06 16,3 °C 15,0 °C 11,1 °C 59 % 1020,3 hPa 0,0 l/m² 0 min 27 W/m² 12,9 km/h (3 Bft) 97,83 %
02.03.2026 17:08 16,3 °C 15,0 °C 11,1 °C 59 % 1020,3 hPa 0,0 l/m² 0 min 26 W/m² 12,9 km/h (3 Bft) 97,87 %
02.03.2026 17:10 16,2 °C 15,0 °C 10,6 °C 59 % 1020,4 hPa 0,0 l/m² 0 min 26 W/m² 12,9 km/h (3 Bft) 95,74 %
02.03.2026 17:12 16,2 °C 15,0 °C 10,6 °C 60 % 1020,4 hPa 0,0 l/m² 0 min 25 W/m² 16,1 km/h (3 Bft) 95,74 %
02.03.2026 17:14 16,1 °C 15,0 °C 10,6 °C 60 % 1020,4 hPa 0,0 l/m² 0 min 25 W/m² 12,9 km/h (3 Bft) 95,74 %
02.03.2026 17:16 16,1 °C 15,0 °C 10,6 °C 59 % 1020,4 hPa 0,0 l/m² 0 min 25 W/m² 12,9 km/h (3 Bft) 95,74 %
02.03.2026 17:18 16,1 °C 15,0 °C 10,6 °C 59 % 1020,4 hPa 0,0 l/m² 0 min 25 W/m² 16,1 km/h (3 Bft) 95,65 %
02.03.2026 17:20 16,0 °C 15,0 °C 10,6 °C 60 % 1020,4 hPa 0,0 l/m² 0 min 25 W/m² 9,7 km/h (2 Bft) 95,74 %
02.03.2026 17:22 15,9 °C 14,4 °C 10,6 °C 60 % 1020,4 hPa 0,0 l/m² 0 min 25 W/m² 19,3 km/h (3 Bft) 95,74 %
02.03.2026 17:24 15,9 °C 14,4 °C 10,6 °C 60 % 1020,4 hPa 0,0 l/m² 0 min 23 W/m² 6,4 km/h (2 Bft) 95,74 %
02.03.2026 17:26 15,8 °C 14,4 °C 10,6 °C 60 % 1020,4 hPa 0,0 l/m² 0 min 21 W/m² 12,9 km/h (3 Bft) 91,49 %
02.03.2026 17:28 15,8 °C 14,4 °C 10,6 °C 60 % 1020,4 hPa 0,0 l/m² 0 min 21 W/m² 12,9 km/h (3 Bft) 95,74 %
02.03.2026 17:30 15,8 °C 14,4 °C 10,6 °C 60 % 1020,4 hPa 0,0 l/m² 0 min 21 W/m² 19,3 km/h (3 Bft) 95,65 %
02.03.2026 17:32 15,7 °C 14,4 °C 10,6 °C 61 % 1020,5 hPa 0,0 l/m² 0 min 21 W/m² 12,9 km/h (3 Bft) 89,36 %
02.03.2026 17:34 15,7 °C 14,4 °C 10,0 °C 61 % 1020,4 hPa 0,0 l/m² 0 min 19 W/m² 9,7 km/h (2 Bft) 95,74 %
02.03.2026 17:36 15,6 °C 14,4 °C 10,0 °C 61 % 1020,4 hPa 0,0 l/m² 0 min 19 W/m² 9,7 km/h (2 Bft) 97,87 %
02.03.2026 17:38 15,6 °C 14,4 °C 10,0 °C 61 % 1020,5 hPa 0,0 l/m² 0 min 18 W/m² 9,7 km/h (2 Bft) 95,74 %
02.03.2026 17:40 15,6 °C 14,4 °C 10,0 °C 61 % 1020,5 hPa 0,0 l/m² 0 min 18 W/m² 16,1 km/h (3 Bft) 95,65 %
02.03.2026 17:42 15,5 °C 13,9 °C 10,0 °C 61 % 1020,5 hPa 0,0 l/m² 0 min 17 W/m² 6,4 km/h (2 Bft) 95,74 %
02.03.2026 17:44 15,4 °C 13,9 °C 10,0 °C 61 % 1020,5 hPa 0,0 l/m² 0 min 16 W/m² 12,9 km/h (3 Bft) 91,49 %
02.03.2026 17:46 15,4 °C 13,9 °C 10,0 °C 62 % 1020,5 hPa 0,0 l/m² 0 min 16 W/m² 16,1 km/h (3 Bft) 95,74 %
02.03.2026 17:48 15,3 °C 13,9 °C 10,0 °C 62 % 1020,5 hPa 0,0 l/m² 0 min 15 W/m² 16,1 km/h (3 Bft) 95,74 %
02.03.2026 17:50 15,3 °C 13,9 °C 10,0 °C 62 % 1020,5 hPa 0,0 l/m² 0 min 14 W/m² 12,9 km/h (3 Bft) 93,62 %
02.03.2026 17:52 15,2 °C 13,9 °C 10,0 °C 62 % 1020,5 hPa 0,0 l/m² 0 min 14 W/m² 12,9 km/h (3 Bft) 97,83 %
02.03.2026 17:54 15,2 °C 13,9 °C 10,0 °C 62 % 1020,5 hPa 0,0 l/m² 0 min 12 W/m² 12,9 km/h (3 Bft) 97,87 %
02.03.2026 17:56 15,2 °C 13,9 °C 10,0 °C 62 % 1020,5 hPa 0,0 l/m² 0 min 12 W/m² 12,9 km/h (3 Bft) 97,87 %
02.03.2026 17:58 15,1 °C 13,9 °C 9,4 °C 62 % 1020,6 hPa 0,0 l/m² 0 min 12 W/m² 6,4 km/h (2 Bft) 95,74 %
02.03.2026 18:00 15,1 °C 13,9 °C 9,4 °C 62 % 1020,6 hPa 0,0 l/m² 0 min 11 W/m² 9,7 km/h (2 Bft) 97,87 %
02.03.2026 18:02 15,0 °C 13,9 °C 9,4 °C 62 % 1020,6 hPa 0,0 l/m² 0 min 11 W/m² 12,9 km/h (3 Bft) 97,87 %
02.03.2026 18:04 14,9 °C 13,3 °C 9,4 °C 62 % 1020,6 hPa 0,0 l/m² 0 min 10 W/m² 6,4 km/h (2 Bft) 95,65 %
02.03.2026 18:07 14,8 °C 13,3 °C 9,4 °C 62 % 1020,7 hPa 0,0 l/m² 0 min 9 W/m² 6,4 km/h (2 Bft) 95,89 %
02.03.2026 18:08 14,8 °C 13,3 °C 9,4 °C 62 % 1020,7 hPa 0,0 l/m² 0 min 7 W/m² 3,2 km/h (1 Bft) 100,00 %
02.03.2026 18:12 14,7 °C 13,3 °C 9,4 °C 62 % 1020,7 hPa 0,0 l/m² 0 min 7 W/m² 9,7 km/h (2 Bft) 100,00 %
02.03.2026 18:14 14,7 °C 13,3 °C 9,4 °C 62 % 1020,7 hPa 0,0 l/m² 0 min 5 W/m² 6,4 km/h (2 Bft) 100,00 %
02.03.2026 18:16 14,6 °C 13,3 °C 9,4 °C 62 % 1020,7 hPa 0,0 l/m² 0 min 5 W/m² 9,7 km/h (2 Bft) 97,87 %
02.03.2026 18:18 14,6 °C 13,3 °C 9,4 °C 62 % 1020,7 hPa 0,0 l/m² 0 min 3 W/m² 6,4 km/h (2 Bft) 100,00 %
02.03.2026 18:20 14,5 °C 13,3 °C 8,9 °C 63 % 1020,7 hPa 0,0 l/m² 0 min 0 W/m² 6,4 km/h (2 Bft) 100,00 %
02.03.2026 18:22 14,4 °C 13,3 °C 8,9 °C 63 % 1020,8 hPa 0,0 l/m² 0 min 0 W/m² 12,9 km/h (3 Bft) 100,00 %
02.03.2026 18:24 14,4 °C 12,8 °C 8,9 °C 63 % 1020,8 hPa 0,0 l/m² 0 min 0 W/m² 3,2 km/h (1 Bft) 100,00 %
02.03.2026 18:26 14,3 °C 12,8 °C 8,9 °C 63 % 1020,8 hPa 0,0 l/m² 0 min 0 W/m² 3,2 km/h (1 Bft) 100,00 %
02.03.2026 18:28 14,3 °C 12,8 °C 8,9 °C 63 % 1020,8 hPa 0,0 l/m² 0 min 0 W/m² 3,2 km/h (1 Bft) 100,00 %
02.03.2026 18:30 14,3 °C 12,8 °C 8,9 °C 63 % 1020,9 hPa 0,0 l/m² 0 min 0 W/m² 9,7 km/h (2 Bft) 97,87 %
02.03.2026 18:32 14,3 °C 12,8 °C 8,9 °C 63 % 1020,9 hPa 0,0 l/m² 0 min 0 W/m² 3,2 km/h (1 Bft) 100,00 %
02.03.2026 18:34 14,3 °C 12,8 °C 8,9 °C 63 % 1020,9 hPa 0,0 l/m² 0 min 0 W/m² 3,2 km/h (1 Bft) 100,00 %
02.03.2026 18:36 14,3 °C 12,8 °C 8,3 °C 63 % 1020,9 hPa 0,0 l/m² 0 min 0 W/m² 3,2 km/h (1 Bft) 98,00 %
02.03.2026 18:38 14,2 °C 12,2 °C 8,3 °C 63 % 1020,9 hPa 0,0 l/m² 0 min 0 W/m² 6,4 km/h (2 Bft) 97,87 %
02.03.2026 18:40 14,1 °C 12,2 °C 8,3 °C 63 % 1020,9 hPa 0,0 l/m² 0 min 0 W/m² 6,4 km/h (2 Bft) 100,00 %
02.03.2026 18:42 14,1 °C 12,2 °C 8,3 °C 64 % 1020,9 hPa 0,0 l/m² 0 min 0 W/m² 3,2 km/h (1 Bft) 100,00 %
02.03.2026 18:44 14,0 °C 12,2 °C 7,8 °C 64 % 1021,0 hPa 0,0 l/m² 0 min 0 W/m² 0,0 km/h (0 Bft) 100,00 %
02.03.2026 18:46 13,9 °C 11,7 °C 7,8 °C 64 % 1021,0 hPa 0,0 l/m² 0 min 0 W/m² 3,2 km/h (1 Bft) 100,00 %
02.03.2026 18:48 13,9 °C 11,7 °C 7,8 °C 64 % 1021,0 hPa 0,0 l/m² 0 min 0 W/m² 0,0 km/h (0 Bft) 100,00 %
02.03.2026 18:50 13,8 °C 11,7 °C 7,2 °C 65 % 1021,1 hPa 0,0 l/m² 0 min 0 W/m² 3,2 km/h (1 Bft) 97,87 %
02.03.2026 18:52 13,8 °C 11,7 °C 7,2 °C 65 % 1021,1 hPa 0,0 l/m² 0 min 0 W/m² 3,2 km/h (1 Bft) 100,00 %
02.03.2026 18:54 13,7 °C 11,1 °C 7,2 °C 65 % 1021,1 hPa 0,0 l/m² 0 min 0 W/m² 3,2 km/h (1 Bft) 97,87 %
02.03.2026 18:56 13,6 °C 11,1 °C 7,2 °C 66 % 1021,1 hPa 0,0 l/m² 0 min 0 W/m² 3,2 km/h (1 Bft) 100,00 %
02.03.2026 18:58 13,6 °C 11,1 °C 7,2 °C 66 % 1021,1 hPa 0,0 l/m² 0 min 0 W/m² 3,2 km/h (1 Bft) 100,00 %
02.03.2026 19:00 13,4 °C 11,1 °C 7,2 °C 66 % 1021,1 hPa 0,0 l/m² 0 min 0 W/m² 3,2 km/h (1 Bft) 100,00 %
02.03.2026 19:02 13,3 °C 11,1 °C 7,2 °C 66 % 1021,1 hPa 0,0 l/m² 0 min 0 W/m² 3,2 km/h (1 Bft) 100,00 %
02.03.2026 19:04 13,3 °C 11,1 °C 6,7 °C 67 % 1021,1 hPa 0,0 l/m² 0 min 0 W/m² 3,2 km/h (1 Bft) 97,87 %
02.03.2026 19:06 13,2 °C 11,1 °C 6,7 °C 67 % 1021,2 hPa 0,0 l/m² 0 min 0 W/m² 3,2 km/h (1 Bft) 100,00 %
02.03.2026 19:08 13,1 °C 11,1 °C 6,7 °C 67 % 1021,2 hPa 0,0 l/m² 0 min 0 W/m² 3,2 km/h (1 Bft) 100,00 %
02.03.2026 19:10 13,1 °C 11,1 °C 7,2 °C 67 % 1021,2 hPa 0,0 l/m² 0 min 0 W/m² 6,4 km/h (2 Bft) 97,83 %
02.03.2026 19:12 13,0 °C 11,1 °C 7,2 °C 67 % 1021,2 hPa 0,0 l/m² 0 min 0 W/m² 3,2 km/h (1 Bft) 98,00 %
02.03.2026 19:14 12,9 °C 11,1 °C 7,2 °C 67 % 1021,2 hPa 0,0 l/m² 0 min 0 W/m² 3,2 km/h (1 Bft) 97,87 %
02.03.2026 19:16 12,9 °C 11,1 °C 7,2 °C 67 % 1021,2 hPa 0,0 l/m² 0 min 0 W/m² 0,0 km/h (0 Bft) 44,74 %
02.03.2026 19:18 12,8 °C 11,1 °C 7,2 °C 67 % 1021,3 hPa 0,0 l/m² 0 min 0 W/m² 3,2 km/h (1 Bft) 97,87 %
02.03.2026 19:20 12,8 °C 11,1 °C 7,2 °C 67 % 1021,3 hPa 0,0 l/m² 0 min 0 W/m² 6,4 km/h (2 Bft) 97,83 %
02.03.2026 19:22 12,7 °C 11,1 °C 7,2 °C 67 % 1021,4 hPa 0,0 l/m² 0 min 0 W/m² 3,2 km/h (1 Bft) 95,74 %
02.03.2026 19:24 12,7 °C 11,1 °C 7,2 °C 67 % 1021,4 hPa 0,0 l/m² 0 min 0 W/m² 6,4 km/h (2 Bft) 97,87 %
02.03.2026 19:26 12,7 °C 11,7 °C 7,2 °C 67 % 1021,5 hPa 0,0 l/m² 0 min 0 W/m² 3,2 km/h (1 Bft) 95,74 %
02.03.2026 19:28 12,6 °C 11,7 °C 7,2 °C 67 % 1021,4 hPa 0,0 l/m² 0 min 0 W/m² 3,2 km/h (1 Bft) 97,87 %
02.03.2026 19:30 12,6 °C 11,7 °C 7,2 °C 67 % 1021,5 hPa 0,0 l/m² 0 min 0 W/m² 6,4 km/h (2 Bft) 95,74 %
02.03.2026 19:32 12,6 °C 11,7 °C 7,2 °C 67 % 1021,5 hPa 0,0 l/m² 0 min 0 W/m² 6,4 km/h (2 Bft) 95,65 %
02.03.2026 19:34 12,6 °C 11,7 °C 7,2 °C 67 % 1021,5 hPa 0,0 l/m² 0 min 0 W/m² 6,4 km/h (2 Bft) 97,87 %
02.03.2026 19:36 12,5 °C 11,7 °C 7,8 °C 67 % 1021,5 hPa 0,0 l/m² 0 min 0 W/m² 6,4 km/h (2 Bft) 93,62 %
02.03.2026 19:38 12,5 °C 11,7 °C 7,8 °C 67 % 1021,6 hPa 0,0 l/m² 0 min 0 W/m² 12,9 km/h (3 Bft) 95,74 %
02.03.2026 19:40 12,5 °C 11,7 °C 7,8 °C 67 % 1021,5 hPa 0,0 l/m² 0 min 0 W/m² 6,4 km/h (2 Bft) 95,74 %
02.03.2026 19:42 12,4 °C 11,7 °C 7,8 °C 67 % 1021,6 hPa 0,0 l/m² 0 min 0 W/m² 9,7 km/h (2 Bft) 95,74 %
02.03.2026 19:44 12,4 °C 11,7 °C 7,8 °C 67 % 1021,6 hPa 0,0 l/m² 0 min 0 W/m² 6,4 km/h (2 Bft) 91,30 %
02.03.2026 19:46 12,4 °C 11,7 °C 7,8 °C 67 % 1021,6 hPa 0,0 l/m² 0 min 0 W/m² 9,7 km/h (2 Bft) 91,49 %
02.03.2026 19:48 12,4 °C 11,7 °C 7,8 °C 67 % 1021,6 hPa 0,0 l/m² 0 min 0 W/m² 6,4 km/h (2 Bft) 91,49 %
02.03.2026 19:50 12,4 °C 11,7 °C 7,8 °C 67 % 1021,6 hPa 0,0 l/m² 0 min 0 W/m² 6,4 km/h (2 Bft) 95,74 %
02.03.2026 19:52 12,4 °C 11,7 °C 7,8 °C 67 % 1021,6 hPa 0,0 l/m² 0 min 0 W/m² 9,7 km/h (2 Bft) 95,74 %
02.03.2026 19:54 12,4 °C 11,7 °C 7,8 °C 67 % 1021,6 hPa 0,0 l/m² 0 min 0 W/m² 6,4 km/h (2 Bft) 95,74 %
02.03.2026 19:56 12,4 °C 11,1 °C 7,2 °C 67 % 1021,6 hPa 0,0 l/m² 0 min 0 W/m² 6,4 km/h (2 Bft) 93,48 %
02.03.2026 19:58 12,4 °C 11,1 °C 7,2 °C 68 % 1021,6 hPa 0,0 l/m² 0 min 0 W/m² 12,9 km/h (3 Bft) 97,87 %
02.03.2026 20:00 12,4 °C 11,1 °C 7,2 °C 68 % 1021,7 hPa 0,0 l/m² 0 min 0 W/m² 6,4 km/h (2 Bft) 95,74 %
02.03.2026 20:02 12,3 °C 11,1 °C 7,2 °C 68 % 1021,6 hPa 0,0 l/m² 0 min 0 W/m² 6,4 km/h (2 Bft) 95,74 %
02.03.2026 20:04 12,3 °C 11,1 °C 7,2 °C 68 % 1021,6 hPa 0,0 l/m² 0 min 0 W/m² 6,4 km/h (2 Bft) 97,87 %
02.03.2026 20:06 12,3 °C 11,1 °C 7,2 °C 68 % 1021,7 hPa 0,0 l/m² 0 min 0 W/m² 6,4 km/h (2 Bft) 97,92 %
02.03.2026 20:08 12,3 °C 11,1 °C 7,2 °C 68 % 1021,7 hPa 0,0 l/m² 0 min 0 W/m² 12,9 km/h (3 Bft) 97,83 %
02.03.2026 20:10 12,2 °C 11,1 °C 7,2 °C 68 % 1021,8 hPa 0,0 l/m² 0 min 0 W/m² 9,7 km/h (2 Bft) 97,87 %
02.03.2026 20:12 12,2 °C 11,1 °C 7,2 °C 68 % 1021,7 hPa 0,0 l/m² 0 min 0 W/m² 12,9 km/h (3 Bft) 97,87 %
02.03.2026 20:14 12,2 °C 11,1 °C 7,2 °C 68 % 1021,8 hPa 0,0 l/m² 0 min 0 W/m² 12,9 km/h (3 Bft) 97,87 %
02.03.2026 20:16 12,2 °C 11,1 °C 7,2 °C 68 % 1021,8 hPa 0,0 l/m² 0 min 0 W/m² 12,9 km/h (3 Bft) 97,87 %
02.03.2026 20:18 12,1 °C 11,1 °C 7,2 °C 68 % 1021,8 hPa 0,0 l/m² 0 min 0 W/m² 6,4 km/h (2 Bft) 97,83 %
02.03.2026 20:20 12,1 °C 11,1 °C 7,2 °C 68 % 1021,8 hPa 0,0 l/m² 0 min 0 W/m² 9,7 km/h (2 Bft) 93,62 %
02.03.2026 20:22 12,1 °C 11,1 °C 7,2 °C 68 % 1021,8 hPa 0,0 l/m² 0 min 0 W/m² 12,9 km/h (3 Bft) 97,87 %
02.03.2026 20:24 12,1 °C 11,1 °C 7,2 °C 68 % 1021,8 hPa 0,0 l/m² 0 min 0 W/m² 9,7 km/h (2 Bft) 95,74 %
02.03.2026 20:26 12,1 °C 11,1 °C 7,2 °C 68 % 1021,8 hPa 0,0 l/m² 0 min 0 W/m² 12,9 km/h (3 Bft) 97,87 %
02.03.2026 20:28 12,1 °C 11,1 °C 7,2 °C 68 % 1021,9 hPa 0,0 l/m² 0 min 0 W/m² 6,4 km/h (2 Bft) 97,87 %
02.03.2026 20:30 12,0 °C 11,1 °C 7,2 °C 68 % 1021,9 hPa 0,0 l/m² 0 min 0 W/m² 12,9 km/h (3 Bft) 97,83 %
02.03.2026 20:32 12,0 °C 11,1 °C 7,2 °C 68 % 1021,9 hPa 0,0 l/m² 0 min 0 W/m² 12,9 km/h (3 Bft) 97,87 %
02.03.2026 20:34 12,0 °C 11,1 °C 7,2 °C 68 % 1021,9 hPa 0,0 l/m² 0 min 0 W/m² 9,7 km/h (2 Bft) 97,87 %
02.03.2026 20:36 11,9 °C 11,1 °C 7,2 °C 68 % 1021,9 hPa 0,0 l/m² 0 min 0 W/m² 6,4 km/h (2 Bft) 100,00 %
02.03.2026 20:38 11,9 °C 10,6 °C 7,2 °C 68 % 1021,9 hPa 0,0 l/m² 0 min 0 W/m² 12,9 km/h (3 Bft) 100,00 %
02.03.2026 20:40 11,9 °C 10,6 °C 7,2 °C 69 % 1021,9 hPa 0,0 l/m² 0 min 0 W/m² 9,7 km/h (2 Bft) 100,00 %
02.03.2026 20:42 11,9 °C 10,6 °C 7,2 °C 69 % 1021,9 hPa 0,0 l/m² 0 min 0 W/m² 12,9 km/h (3 Bft) 97,83 %
02.03.2026 20:44 11,9 °C 10,6 °C 6,7 °C 69 % 1021,9 hPa 0,0 l/m² 0 min 0 W/m² 12,9 km/h (3 Bft) 97,87 %
02.03.2026 20:46 11,8 °C 10,6 °C 6,7 °C 69 % 1022,0 hPa 0,0 l/m² 0 min 0 W/m² 12,9 km/h (3 Bft) 100,00 %
02.03.2026 20:48 11,8 °C 10,6 °C 7,2 °C 69 % 1021,9 hPa 0,0 l/m² 0 min 0 W/m² 12,9 km/h (3 Bft) 100,00 %
02.03.2026 20:50 11,8 °C 10,6 °C 6,7 °C 69 % 1022,0 hPa 0,0 l/m² 0 min 0 W/m² 12,9 km/h (3 Bft) 100,00 %
02.03.2026 20:52 11,8 °C 10,6 °C 6,7 °C 69 % 1022,0 hPa 0,0 l/m² 0 min 0 W/m² 16,1 km/h (3 Bft) 97,87 %
02.03.2026 20:54 11,7 °C 10,6 °C 6,7 °C 69 % 1022,0 hPa 0,0 l/m² 0 min 0 W/m² 12,9 km/h (3 Bft) 100,00 %
02.03.2026 20:56 11,7 °C 10,6 °C 6,7 °C 69 % 1022,0 hPa 0,0 l/m² 0 min 0 W/m² 12,9 km/h (3 Bft) 100,00 %
02.03.2026 20:58 11,7 °C 10,6 °C 6,7 °C 69 % 1022,0 hPa 0,0 l/m² 0 min 0 W/m² 6,4 km/h (2 Bft) 100,00 %
02.03.2026 21:00 11,7 °C 10,6 °C 6,7 °C 70 % 1022,0 hPa 0,0 l/m² 0 min 0 W/m² 16,1 km/h (3 Bft) 97,87 %
02.03.2026 21:02 11,7 °C 10,6 °C 6,7 °C 70 % 1022,0 hPa 0,0 l/m² 0 min 0 W/m² 9,7 km/h (2 Bft) 100,00 %
02.03.2026 21:04 11,6 °C 10,6 °C 6,7 °C 70 % 1022,1 hPa 0,0 l/m² 0 min 0 W/m² 12,9 km/h (3 Bft) 100,00 %
02.03.2026 21:06 11,6 °C 10,6 °C 6,7 °C 70 % 1022,1 hPa 0,0 l/m² 0 min 0 W/m² 12,9 km/h (3 Bft) 97,83 %
02.03.2026 21:08 11,6 °C 10,6 °C 6,7 °C 70 % 1022,1 hPa 0,0 l/m² 0 min 0 W/m² 9,7 km/h (2 Bft) 100,00 %
02.03.2026 21:10 11,6 °C 10,0 °C 6,7 °C 70 % 1022,1 hPa 0,0 l/m² 0 min 0 W/m² 12,9 km/h (3 Bft) 100,00 %
02.03.2026 21:12 11,6 °C 10,0 °C 6,7 °C 70 % 1022,1 hPa 0,0 l/m² 0 min 0 W/m² 12,9 km/h (3 Bft) 100,00 %
02.03.2026 21:14 11,5 °C 10,0 °C 6,7 °C 70 % 1022,1 hPa 0,0 l/m² 0 min 0 W/m² 6,4 km/h (2 Bft) 97,87 %
02.03.2026 21:16 11,4 °C 10,0 °C 6,7 °C 70 % 1022,1 hPa 0,0 l/m² 0 min 0 W/m² 6,4 km/h (2 Bft) 97,83 %
02.03.2026 21:18 11,4 °C 10,0 °C 6,7 °C 70 % 1022,1 hPa 0,0 l/m² 0 min 0 W/m² 12,9 km/h (3 Bft) 97,87 %
02.03.2026 21:20 11,4 °C 10,0 °C 6,7 °C 70 % 1022,1 hPa 0,0 l/m² 0 min 0 W/m² 6,4 km/h (2 Bft) 97,87 %
02.03.2026 21:22 11,3 °C 10,0 °C 6,7 °C 70 % 1022,2 hPa 0,0 l/m² 0 min 0 W/m² 16,1 km/h (3 Bft) 93,62 %
02.03.2026 21:24 11,3 °C 10,0 °C 6,1 °C 71 % 1022,2 hPa 0,0 l/m² 0 min 0 W/m² 6,4 km/h (2 Bft) 95,74 %
02.03.2026 21:26 11,3 °C 10,0 °C 6,1 °C 71 % 1022,2 hPa 0,0 l/m² 0 min 0 W/m² 9,7 km/h (2 Bft) 97,87 %
02.03.2026 21:28 11,2 °C 10,0 °C 6,1 °C 71 % 1022,2 hPa 0,0 l/m² 0 min 0 W/m² 9,7 km/h (2 Bft) 97,83 %
02.03.2026 21:30 11,2 °C 10,0 °C 6,1 °C 71 % 1022,2 hPa 0,0 l/m² 0 min 0 W/m² 16,1 km/h (3 Bft) 95,74 %
02.03.2026 21:32 11,2 °C 10,0 °C 6,1 °C 71 % 1022,2 hPa 0,0 l/m² 0 min 0 W/m² 12,9 km/h (3 Bft) 95,74 %
02.03.2026 21:34 11,1 °C 10,0 °C 6,1 °C 71 % 1022,2 hPa 0,0 l/m² 0 min 0 W/m² 16,1 km/h (3 Bft) 95,74 %
02.03.2026 21:36 11,1 °C 10,0 °C 6,1 °C 71 % 1022,2 hPa 0,0 l/m² 0 min 0 W/m² 9,7 km/h (2 Bft) 95,74 %
02.03.2026 21:38 11,1 °C 10,0 °C 6,1 °C 71 % 1022,3 hPa 0,0 l/m² 0 min 0 W/m² 6,4 km/h (2 Bft) 95,74 %
02.03.2026 21:40 11,0 °C 10,0 °C 6,1 °C 72 % 1022,3 hPa 0,0 l/m² 0 min 0 W/m² 12,9 km/h (3 Bft) 95,65 %
02.03.2026 21:42 11,0 °C 10,0 °C 6,1 °C 72 % 1022,3 hPa 0,0 l/m² 0 min 0 W/m² 9,7 km/h (2 Bft) 95,74 %
02.03.2026 21:44 10,9 °C 10,0 °C 6,1 °C 72 % 1022,3 hPa 0,0 l/m² 0 min 0 W/m² 12,9 km/h (3 Bft) 95,74 %
02.03.2026 21:46 10,9 °C 9,4 °C 6,1 °C 72 % 1022,3 hPa 0,0 l/m² 0 min 0 W/m² 6,4 km/h (2 Bft) 95,74 %
02.03.2026 21:48 10,9 °C 9,4 °C 6,1 °C 72 % 1022,4 hPa 0,0 l/m² 0 min 0 W/m² 6,4 km/h (2 Bft) 97,87 %
02.03.2026 21:50 10,9 °C 9,4 °C 6,1 °C 72 % 1022,4 hPa 0,0 l/m² 0 min 0 W/m² 12,9 km/h (3 Bft) 97,87 %
02.03.2026 21:52 10,8 °C 9,4 °C 6,1 °C 72 % 1022,5 hPa 0,0 l/m² 0 min 0 W/m² 12,9 km/h (3 Bft) 95,65 %
02.03.2026 21:54 10,8 °C 9,4 °C 6,1 °C 72 % 1022,4 hPa 0,0 l/m² 0 min 0 W/m² 6,4 km/h (2 Bft) 95,74 %
02.03.2026 21:56 10,8 °C 9,4 °C 6,1 °C 72 % 1022,5 hPa 0,0 l/m² 0 min 0 W/m² 12,9 km/h (3 Bft) 97,87 %
02.03.2026 21:58 10,8 °C 9,4 °C 6,1 °C 73 % 1022,5 hPa 0,0 l/m² 0 min 0 W/m² 12,9 km/h (3 Bft) 97,87 %
02.03.2026 22:00 10,7 °C 9,4 °C 6,1 °C 73 % 1022,5 hPa 0,0 l/m² 0 min 0 W/m² 12,9 km/h (3 Bft) 95,74 %
02.03.2026 22:02 10,7 °C 9,4 °C 6,1 °C 73 % 1022,5 hPa 0,0 l/m² 0 min 0 W/m² 19,3 km/h (3 Bft) 97,87 %
02.03.2026 22:04 10,7 °C 9,4 °C 6,1 °C 73 % 1022,5 hPa 0,0 l/m² 0 min 0 W/m² 12,9 km/h (3 Bft) 95,65 %
02.03.2026 22:06 10,6 °C 9,4 °C 6,1 °C 73 % 1022,5 hPa 0,0 l/m² 0 min 0 W/m² 16,1 km/h (3 Bft) 100,00 %
02.03.2026 22:08 10,6 °C 9,4 °C 6,1 °C 74 % 1022,5 hPa 0,0 l/m² 0 min 0 W/m² 6,4 km/h (2 Bft) 97,92 %
02.03.2026 22:10 10,6 °C 9,4 °C 6,1 °C 73 % 1022,6 hPa 0,0 l/m² 0 min 0 W/m² 12,9 km/h (3 Bft) 100,00 %
02.03.2026 22:12 10,6 °C 9,4 °C 6,1 °C 74 % 1022,6 hPa 0,0 l/m² 0 min 0 W/m² 6,4 km/h (2 Bft) 97,87 %
02.03.2026 22:14 10,6 °C 9,4 °C 5,6 °C 74 % 1022,6 hPa 0,0 l/m² 0 min 0 W/m² 16,1 km/h (3 Bft) 100,00 %
02.03.2026 22:16 10,6 °C 9,4 °C 6,1 °C 74 % 1022,5 hPa 0,0 l/m² 0 min 0 W/m² 16,1 km/h (3 Bft) 100,00 %
02.03.2026 22:18 10,6 °C 9,4 °C 6,1 °C 74 % 1022,6 hPa 0,0 l/m² 0 min 0 W/m² 16,1 km/h (3 Bft) 100,00 %
02.03.2026 22:20 10,5 °C 9,4 °C 6,1 °C 74 % 1022,6 hPa 0,0 l/m² 0 min 0 W/m² 9,7 km/h (2 Bft) 100,00 %
02.03.2026 22:22 10,5 °C 9,4 °C 6,1 °C 74 % 1022,6 hPa 0,0 l/m² 0 min 0 W/m² 12,9 km/h (3 Bft) 100,00 %
02.03.2026 22:24 10,5 °C 9,4 °C 6,1 °C 75 % 1022,7 hPa 0,0 l/m² 0 min 0 W/m² 19,3 km/h (3 Bft) 100,00 %
02.03.2026 22:26 10,5 °C 9,4 °C 5,6 °C 75 % 1022,6 hPa 0,0 l/m² 0 min 0 W/m² 12,9 km/h (3 Bft) 100,00 %
02.03.2026 22:28 10,4 °C 9,4 °C 5,6 °C 75 % 1022,7 hPa 0,0 l/m² 0 min 0 W/m² 12,9 km/h (3 Bft) 100,00 %
02.03.2026 22:30 10,4 °C 9,4 °C 5,6 °C 75 % 1022,7 hPa 0,0 l/m² 0 min 0 W/m² 6,4 km/h (2 Bft) 97,87 %
02.03.2026 22:32 10,4 °C 9,4 °C 5,6 °C 75 % 1022,7 hPa 0,0 l/m² 0 min 0 W/m² 12,9 km/h (3 Bft) 100,00 %
02.03.2026 22:34 10,4 °C 9,4 °C 5,6 °C 75 % 1022,7 hPa 0,0 l/m² 0 min 0 W/m² 12,9 km/h (3 Bft) 100,00 %
02.03.2026 22:36 10,4 °C 9,4 °C 5,6 °C 75 % 1022,8 hPa 0,0 l/m² 0 min 0 W/m² 6,4 km/h (2 Bft) 100,00 %
02.03.2026 22:38 10,4 °C 9,4 °C 5,6 °C 75 % 1022,7 hPa 0,0 l/m² 0 min 0 W/m² 12,9 km/h (3 Bft) 100,00 %
02.03.2026 22:40 10,3 °C 9,4 °C 5,6 °C 75 % 1022,8 hPa 0,0 l/m² 0 min 0 W/m² 16,1 km/h (3 Bft) 100,00 %
02.03.2026 22:42 10,3 °C 9,4 °C 5,6 °C 75 % 1022,7 hPa 0,0 l/m² 0 min 0 W/m² 12,9 km/h (3 Bft) 100,00 %
02.03.2026 22:44 10,3 °C 8,9 °C 5,6 °C 75 % 1022,8 hPa 0,0 l/m² 0 min 0 W/m² 12,9 km/h (3 Bft) 97,87 %
02.03.2026 22:46 10,3 °C 8,9 °C 5,6 °C 76 % 1022,7 hPa 0,0 l/m² 0 min 0 W/m² 12,9 km/h (3 Bft) 95,74 %
02.03.2026 22:48 10,3 °C 8,9 °C 5,6 °C 76 % 1022,8 hPa 0,0 l/m² 0 min 0 W/m² 12,9 km/h (3 Bft) 97,87 %
02.03.2026 22:50 10,2 °C 8,9 °C 5,6 °C 76 % 1022,8 hPa 0,0 l/m² 0 min 0 W/m² 19,3 km/h (3 Bft) 97,83 %
02.03.2026 22:52 10,2 °C 8,9 °C 5,6 °C 76 % 1022,8 hPa 0,0 l/m² 0 min 0 W/m² 16,1 km/h (3 Bft) 97,87 %
02.03.2026 22:54 10,2 °C 8,9 °C 5,6 °C 76 % 1022,8 hPa 0,0 l/m² 0 min 0 W/m² 12,9 km/h (3 Bft) 95,74 %
02.03.2026 22:56 10,1 °C 8,9 °C 5,6 °C 76 % 1022,8 hPa 0,0 l/m² 0 min 0 W/m² 12,9 km/h (3 Bft) 97,87 %
02.03.2026 22:58 10,1 °C 8,9 °C 5,6 °C 76 % 1022,8 hPa 0,0 l/m² 0 min 0 W/m² 16,1 km/h (3 Bft) 97,87 %
02.03.2026 23:00 10,1 °C 8,9 °C 5,6 °C 76 % 1022,8 hPa 0,0 l/m² 0 min 0 W/m² 16,1 km/h (3 Bft) 95,74 %
02.03.2026 23:02 10,1 °C 8,9 °C 5,6 °C 76 % 1022,9 hPa 0,0 l/m² 0 min 0 W/m² 6,4 km/h (2 Bft) 97,83 %
02.03.2026 23:04 10,1 °C 8,9 °C 5,6 °C 77 % 1022,9 hPa 0,0 l/m² 0 min 0 W/m² 12,9 km/h (3 Bft) 95,74 %
02.03.2026 23:06 10,0 °C 8,9 °C 5,6 °C 77 % 1022,9 hPa 0,0 l/m² 0 min 0 W/m² 19,3 km/h (3 Bft) 93,62 %
02.03.2026 23:08 10,0 °C 8,9 °C 5,6 °C 77 % 1022,9 hPa 0,0 l/m² 0 min 0 W/m² 12,9 km/h (3 Bft) 95,83 %
02.03.2026 23:10 10,0 °C 8,9 °C 5,6 °C 77 % 1022,9 hPa 0,0 l/m² 0 min 0 W/m² 16,1 km/h (3 Bft) 95,74 %
02.03.2026 23:12 9,9 °C 8,9 °C 5,6 °C 77 % 1022,9 hPa 0,0 l/m² 0 min 0 W/m² 19,3 km/h (3 Bft) 93,48 %
02.03.2026 23:14 9,9 °C 8,9 °C 5,6 °C 77 % 1022,9 hPa 0,0 l/m² 0 min 0 W/m² 16,1 km/h (3 Bft) 93,62 %
02.03.2026 23:16 9,9 °C 8,9 °C 5,0 °C 77 % 1022,9 hPa 0,0 l/m² 0 min 0 W/m² 16,1 km/h (3 Bft) 95,74 %
02.03.2026 23:18 9,9 °C 8,9 °C 5,0 °C 77 % 1022,9 hPa 0,0 l/m² 0 min 0 W/m² 12,9 km/h (3 Bft) 93,62 %
02.03.2026 23:20 9,9 °C 8,9 °C 5,0 °C 77 % 1022,9 hPa 0,0 l/m² 0 min 0 W/m² 16,1 km/h (3 Bft) 95,74 %
02.03.2026 23:22 9,8 °C 8,9 °C 5,0 °C 78 % 1022,9 hPa 0,0 l/m² 0 min 0 W/m² 12,9 km/h (3 Bft) 93,62 %
02.03.2026 23:24 9,8 °C 8,9 °C 5,0 °C 78 % 1022,9 hPa 0,0 l/m² 0 min 0 W/m² 19,3 km/h (3 Bft) 95,65 %
02.03.2026 23:26 9,8 °C 8,9 °C 5,0 °C 78 % 1023,0 hPa 0,0 l/m² 0 min 0 W/m² 12,9 km/h (3 Bft) 95,74 %
02.03.2026 23:28 9,8 °C 8,9 °C 5,0 °C 78 % 1023,0 hPa 0,0 l/m² 0 min 0 W/m² 22,5 km/h (4 Bft) 95,74 %
02.03.2026 23:30 9,8 °C 8,9 °C 5,0 °C 78 % 1023,0 hPa 0,0 l/m² 0 min 0 W/m² 12,9 km/h (3 Bft) 91,49 %
02.03.2026 23:32 9,8 °C 8,9 °C 5,0 °C 78 % 1023,0 hPa 0,0 l/m² 0 min 0 W/m² 9,7 km/h (2 Bft) 97,87 %
02.03.2026 23:34 9,7 °C 8,9 °C 5,0 °C 78 % 1023,0 hPa 0,0 l/m² 0 min 0 W/m² 19,3 km/h (3 Bft) 93,62 %
02.03.2026 23:36 9,7 °C 8,9 °C 5,0 °C 78 % 1023,1 hPa 0,0 l/m² 0 min 0 W/m² 12,9 km/h (3 Bft) 97,83 %
02.03.2026 23:38 9,7 °C 8,9 °C 5,0 °C 78 % 1023,1 hPa 0,0 l/m² 0 min 0 W/m² 12,9 km/h (3 Bft) 100,00 %
02.03.2026 23:40 9,7 °C 8,9 °C 5,0 °C 78 % 1023,1 hPa 0,0 l/m² 0 min 0 W/m² 12,9 km/h (3 Bft) 95,74 %
02.03.2026 23:42 9,7 °C 8,9 °C 5,0 °C 78 % 1023,1 hPa 0,0 l/m² 0 min 0 W/m² 12,9 km/h (3 Bft) 100,00 %
02.03.2026 23:44 9,6 °C 8,3 °C 5,0 °C 78 % 1023,1 hPa 0,0 l/m² 0 min 0 W/m² 16,1 km/h (3 Bft) 95,74 %
02.03.2026 23:46 9,6 °C 8,3 °C 5,0 °C 78 % 1023,1 hPa 0,0 l/m² 0 min 0 W/m² 16,1 km/h (3 Bft) 97,87 %
02.03.2026 23:48 9,6 °C 8,3 °C 5,0 °C 79 % 1023,0 hPa 0,0 l/m² 0 min 0 W/m² 16,1 km/h (3 Bft) 95,65 %
02.03.2026 23:50 9,6 °C 8,3 °C 5,0 °C 79 % 1023,1 hPa 0,0 l/m² 0 min 0 W/m² 16,1 km/h (3 Bft) 97,87 %
02.03.2026 23:52 9,6 °C 8,3 °C 5,0 °C 79 % 1023,1 hPa 0,0 l/m² 0 min 0 W/m² 12,9 km/h (3 Bft) 97,87 %
02.03.2026 23:54 9,6 °C 8,3 °C 5,0 °C 79 % 1023,1 hPa 0,0 l/m² 0 min 0 W/m² 16,1 km/h (3 Bft) 97,87 %
02.03.2026 23:56 9,5 °C 8,3 °C 5,0 °C 79 % 1023,1 hPa 0,0 l/m² 0 min 0 W/m² 12,9 km/h (3 Bft) 97,87 %
02.03.2026 23:58 9,5 °C 8,3 °C 5,0 °C 79 % 1023,1 hPa 0,0 l/m² 0 min 0 W/m² 16,1 km/h (3 Bft) 97,87 %
_ Min-Zeit 06:42 05:28 04:58 14:46 16:22 - - - 00:08 19:16
Minimum _ 5,2 °C 4,4 °C 1,1 °C 55 % 1020,1 hPa - - - 0,0 km/h (0 Bft) 44,74 %
_ Max-Zeit 15:44 13:10 11:40 05:06 23:36 00:00 12:12 12:34 12:07 00:58
Maximum _ 17,8 °C 24,4 °C 16,1 °C 89 % 1023,1 hPa 0,0 l/m² 4 min 568 W/m² 29,0 km/h
SW (5 Bft)
100,00 %
Durchschnitt _ 10,7 °C 11,4 °C 6,4 °C 74 % 1021,7 hPa #0,0 l/m² #7:28 h 296 W/m² 14,0 km/h (3 Bft) 97,17 %
© 2026 W. Hausmann